<?xml version="1.0" encoding="UTF-8" standalone="no" ?>
<gpx xmlns="http://www.topografix.com/GPX/1/1" xmlns:xsi="http://www.w3.org/2001/XMLSchema-instance" xsi:schemaLocation="http://www.topografix.com/GPX/1/1 http://www.topografix.com/GPX/1/1/gpx.xsd" version="1.1" creator="VisuGPX - https://www.visugpx.com">
  <metadata>
    <name>st germain berniere ouistreham</name>
  </metadata>
  <trk>
    <name><![CDATA[12388709-CAEN NORD]]></name>
    <trkseg>
      <trkpt lat="49.18274" lon="-0.35857">
        <ele>10</ele>
        <time>2021-03-24T15:08:14Z</time>
      </trkpt>
      <trkpt lat="49.18318" lon="-0.35762">
        <ele>9</ele>
        <time>2021-03-24T15:08:28Z</time>
      </trkpt>
      <trkpt lat="49.18367" lon="-0.35705">
        <ele>9</ele>
        <time>2021-03-24T15:08:38Z</time>
      </trkpt>
      <trkpt lat="49.18374" lon="-0.35718">
        <ele>9</ele>
        <time>2021-03-24T15:08:40Z</time>
      </trkpt>
      <trkpt lat="49.18403" lon="-0.35773">
        <ele>10</ele>
        <time>2021-03-24T15:08:49Z</time>
      </trkpt>
      <trkpt lat="49.18406" lon="-0.35779">
        <ele>10</ele>
        <time>2021-03-24T15:08:50Z</time>
      </trkpt>
      <trkpt lat="49.18419" lon="-0.35805">
        <ele>10</ele>
        <time>2021-03-24T15:08:53Z</time>
      </trkpt>
      <trkpt lat="49.18424" lon="-0.3582">
        <ele>11</ele>
        <time>2021-03-24T15:08:55Z</time>
      </trkpt>
      <trkpt lat="49.18427" lon="-0.35835">
        <ele>11</ele>
        <time>2021-03-24T15:08:57Z</time>
      </trkpt>
      <trkpt lat="49.18426" lon="-0.3586">
        <ele>11</ele>
        <time>2021-03-24T15:09:00Z</time>
      </trkpt>
      <trkpt lat="49.18424" lon="-0.3587">
        <ele>10</ele>
        <time>2021-03-24T15:09:01Z</time>
      </trkpt>
      <trkpt lat="49.1842" lon="-0.35882">
        <ele>10</ele>
        <time>2021-03-24T15:09:03Z</time>
      </trkpt>
      <trkpt lat="49.18411" lon="-0.35907">
        <ele>10</ele>
        <time>2021-03-24T15:09:06Z</time>
      </trkpt>
      <trkpt lat="49.18409" lon="-0.35914">
        <ele>10</ele>
        <time>2021-03-24T15:09:07Z</time>
      </trkpt>
      <trkpt lat="49.18407" lon="-0.35919">
        <ele>10</ele>
        <time>2021-03-24T15:09:08Z</time>
      </trkpt>
      <trkpt lat="49.18407" lon="-0.35926">
        <ele>10</ele>
        <time>2021-03-24T15:09:09Z</time>
      </trkpt>
      <trkpt lat="49.18406" lon="-0.35936">
        <ele>10</ele>
        <time>2021-03-24T15:09:10Z</time>
      </trkpt>
      <trkpt lat="49.18408" lon="-0.35945">
        <ele>10</ele>
        <time>2021-03-24T15:09:11Z</time>
      </trkpt>
      <trkpt lat="49.18409" lon="-0.3595">
        <ele>10</ele>
        <time>2021-03-24T15:09:11Z</time>
      </trkpt>
      <trkpt lat="49.1841" lon="-0.35954">
        <ele>10</ele>
        <time>2021-03-24T15:09:12Z</time>
      </trkpt>
      <trkpt lat="49.18414" lon="-0.35961">
        <ele>10</ele>
        <time>2021-03-24T15:09:13Z</time>
      </trkpt>
      <trkpt lat="49.18417" lon="-0.35964">
        <ele>10</ele>
        <time>2021-03-24T15:09:14Z</time>
      </trkpt>
      <trkpt lat="49.18429" lon="-0.35976">
        <ele>11</ele>
        <time>2021-03-24T15:09:16Z</time>
      </trkpt>
      <trkpt lat="49.18462" lon="-0.3601">
        <ele>12</ele>
        <time>2021-03-24T15:09:23Z</time>
      </trkpt>
      <trkpt lat="49.18465" lon="-0.36013">
        <ele>12</ele>
        <time>2021-03-24T15:09:24Z</time>
      </trkpt>
      <trkpt lat="49.18474" lon="-0.36022">
        <ele>13</ele>
        <time>2021-03-24T15:09:26Z</time>
      </trkpt>
      <trkpt lat="49.18474" lon="-0.36034">
        <ele>13</ele>
        <time>2021-03-24T15:09:27Z</time>
      </trkpt>
      <trkpt lat="49.18471" lon="-0.36041">
        <ele>12</ele>
        <time>2021-03-24T15:09:28Z</time>
      </trkpt>
      <trkpt lat="49.18453" lon="-0.36081">
        <ele>12</ele>
        <time>2021-03-24T15:09:34Z</time>
      </trkpt>
      <trkpt lat="49.18434" lon="-0.36119">
        <ele>12</ele>
        <time>2021-03-24T15:09:39Z</time>
      </trkpt>
      <trkpt lat="49.18432" lon="-0.36124">
        <ele>11</ele>
        <time>2021-03-24T15:09:40Z</time>
      </trkpt>
      <trkpt lat="49.18424" lon="-0.3614">
        <ele>11</ele>
        <time>2021-03-24T15:09:42Z</time>
      </trkpt>
      <trkpt lat="49.18422" lon="-0.36146">
        <ele>11</ele>
        <time>2021-03-24T15:09:43Z</time>
      </trkpt>
      <trkpt lat="49.18419" lon="-0.36152">
        <ele>11</ele>
        <time>2021-03-24T15:09:44Z</time>
      </trkpt>
      <trkpt lat="49.18416" lon="-0.3616">
        <ele>11</ele>
        <time>2021-03-24T15:09:45Z</time>
      </trkpt>
      <trkpt lat="49.1842" lon="-0.36165">
        <ele>11</ele>
        <time>2021-03-24T15:09:46Z</time>
      </trkpt>
      <trkpt lat="49.18428" lon="-0.36174">
        <ele>11</ele>
        <time>2021-03-24T15:09:48Z</time>
      </trkpt>
      <trkpt lat="49.18431" lon="-0.36177">
        <ele>12</ele>
        <time>2021-03-24T15:09:48Z</time>
      </trkpt>
      <trkpt lat="49.18444" lon="-0.36192">
        <ele>12</ele>
        <time>2021-03-24T15:09:51Z</time>
      </trkpt>
      <trkpt lat="49.18462" lon="-0.36212">
        <ele>13</ele>
        <time>2021-03-24T15:09:55Z</time>
      </trkpt>
      <trkpt lat="49.18472" lon="-0.36228">
        <ele>13</ele>
        <time>2021-03-24T15:09:58Z</time>
      </trkpt>
      <trkpt lat="49.18481" lon="-0.36249">
        <ele>14</ele>
        <time>2021-03-24T15:10:01Z</time>
      </trkpt>
      <trkpt lat="49.18486" lon="-0.36263">
        <ele>14</ele>
        <time>2021-03-24T15:10:03Z</time>
      </trkpt>
      <trkpt lat="49.18489" lon="-0.36276">
        <ele>14</ele>
        <time>2021-03-24T15:10:04Z</time>
      </trkpt>
      <trkpt lat="49.18491" lon="-0.36286">
        <ele>13</ele>
        <time>2021-03-24T15:10:06Z</time>
      </trkpt>
      <trkpt lat="49.18493" lon="-0.36294">
        <ele>13</ele>
        <time>2021-03-24T15:10:07Z</time>
      </trkpt>
      <trkpt lat="49.18496" lon="-0.36306">
        <ele>13</ele>
        <time>2021-03-24T15:10:08Z</time>
      </trkpt>
      <trkpt lat="49.18504" lon="-0.36344">
        <ele>13</ele>
        <time>2021-03-24T15:10:13Z</time>
      </trkpt>
      <trkpt lat="49.18505" lon="-0.36346">
        <ele>13</ele>
        <time>2021-03-24T15:10:13Z</time>
      </trkpt>
      <trkpt lat="49.18507" lon="-0.36356">
        <ele>13</ele>
        <time>2021-03-24T15:10:14Z</time>
      </trkpt>
      <trkpt lat="49.18508" lon="-0.36362">
        <ele>13</ele>
        <time>2021-03-24T15:10:15Z</time>
      </trkpt>
      <trkpt lat="49.18512" lon="-0.36383">
        <ele>14</ele>
        <time>2021-03-24T15:10:17Z</time>
      </trkpt>
      <trkpt lat="49.18515" lon="-0.36394">
        <ele>14</ele>
        <time>2021-03-24T15:10:19Z</time>
      </trkpt>
      <trkpt lat="49.18524" lon="-0.36431">
        <ele>15</ele>
        <time>2021-03-24T15:10:23Z</time>
      </trkpt>
      <trkpt lat="49.18526" lon="-0.36439">
        <ele>15</ele>
        <time>2021-03-24T15:10:24Z</time>
      </trkpt>
      <trkpt lat="49.1853" lon="-0.3645">
        <ele>16</ele>
        <time>2021-03-24T15:10:26Z</time>
      </trkpt>
      <trkpt lat="49.18537" lon="-0.36469">
        <ele>16</ele>
        <time>2021-03-24T15:10:28Z</time>
      </trkpt>
      <trkpt lat="49.18542" lon="-0.36481">
        <ele>17</ele>
        <time>2021-03-24T15:10:30Z</time>
      </trkpt>
      <trkpt lat="49.18548" lon="-0.36479">
        <ele>17</ele>
        <time>2021-03-24T15:10:31Z</time>
      </trkpt>
      <trkpt lat="49.18556" lon="-0.36484">
        <ele>18</ele>
        <time>2021-03-24T15:10:33Z</time>
      </trkpt>
      <trkpt lat="49.18592" lon="-0.36534">
        <ele>19</ele>
        <time>2021-03-24T15:10:41Z</time>
      </trkpt>
      <trkpt lat="49.18601" lon="-0.36547">
        <ele>18</ele>
        <time>2021-03-24T15:10:44Z</time>
      </trkpt>
      <trkpt lat="49.18606" lon="-0.36554">
        <ele>18</ele>
        <time>2021-03-24T15:10:45Z</time>
      </trkpt>
      <trkpt lat="49.1862" lon="-0.36571">
        <ele>18</ele>
        <time>2021-03-24T15:10:48Z</time>
      </trkpt>
      <trkpt lat="49.18626" lon="-0.3658">
        <ele>17</ele>
        <time>2021-03-24T15:10:49Z</time>
      </trkpt>
      <trkpt lat="49.18629" lon="-0.36583">
        <ele>17</ele>
        <time>2021-03-24T15:10:50Z</time>
      </trkpt>
      <trkpt lat="49.1864" lon="-0.36599">
        <ele>17</ele>
        <time>2021-03-24T15:10:53Z</time>
      </trkpt>
      <trkpt lat="49.18647" lon="-0.36607">
        <ele>17</ele>
        <time>2021-03-24T15:10:54Z</time>
      </trkpt>
      <trkpt lat="49.18649" lon="-0.36612">
        <ele>16</ele>
        <time>2021-03-24T15:10:55Z</time>
      </trkpt>
      <trkpt lat="49.18651" lon="-0.36618">
        <ele>16</ele>
        <time>2021-03-24T15:10:56Z</time>
      </trkpt>
      <trkpt lat="49.18656" lon="-0.36621">
        <ele>16</ele>
        <time>2021-03-24T15:10:57Z</time>
      </trkpt>
      <trkpt lat="49.18667" lon="-0.36623">
        <ele>16</ele>
        <time>2021-03-24T15:10:59Z</time>
      </trkpt>
      <trkpt lat="49.18678" lon="-0.36625">
        <ele>16</ele>
        <time>2021-03-24T15:11:01Z</time>
      </trkpt>
      <trkpt lat="49.18682" lon="-0.36626">
        <ele>17</ele>
        <time>2021-03-24T15:11:01Z</time>
      </trkpt>
      <trkpt lat="49.18689" lon="-0.36627">
        <ele>17</ele>
        <time>2021-03-24T15:11:03Z</time>
      </trkpt>
      <trkpt lat="49.18759" lon="-0.36641">
        <ele>19</ele>
        <time>2021-03-24T15:11:15Z</time>
      </trkpt>
      <trkpt lat="49.18765" lon="-0.36642">
        <ele>19</ele>
        <time>2021-03-24T15:11:16Z</time>
      </trkpt>
      <trkpt lat="49.18771" lon="-0.36648">
        <ele>19</ele>
        <time>2021-03-24T15:11:18Z</time>
      </trkpt>
      <trkpt lat="49.18774" lon="-0.36655">
        <ele>19</ele>
        <time>2021-03-24T15:11:19Z</time>
      </trkpt>
      <trkpt lat="49.18781" lon="-0.36679">
        <ele>19</ele>
        <time>2021-03-24T15:11:22Z</time>
      </trkpt>
      <trkpt lat="49.18781" lon="-0.36693">
        <ele>18</ele>
        <time>2021-03-24T15:11:23Z</time>
      </trkpt>
      <trkpt lat="49.18787" lon="-0.36714">
        <ele>18</ele>
        <time>2021-03-24T15:11:26Z</time>
      </trkpt>
      <trkpt lat="49.18794" lon="-0.36738">
        <ele>18</ele>
        <time>2021-03-24T15:11:29Z</time>
      </trkpt>
      <trkpt lat="49.18844" lon="-0.3688">
        <ele>19</ele>
        <time>2021-03-24T15:11:48Z</time>
      </trkpt>
      <trkpt lat="49.18851" lon="-0.36889">
        <ele>20</ele>
        <time>2021-03-24T15:11:49Z</time>
      </trkpt>
      <trkpt lat="49.18866" lon="-0.36924">
        <ele>21</ele>
        <time>2021-03-24T15:11:54Z</time>
      </trkpt>
      <trkpt lat="49.1888" lon="-0.36948">
        <ele>21</ele>
        <time>2021-03-24T15:11:58Z</time>
      </trkpt>
      <trkpt lat="49.18889" lon="-0.36973">
        <ele>21</ele>
        <time>2021-03-24T15:12:01Z</time>
      </trkpt>
      <trkpt lat="49.18928" lon="-0.37044">
        <ele>22</ele>
        <time>2021-03-24T15:12:12Z</time>
      </trkpt>
      <trkpt lat="49.18946" lon="-0.37076">
        <ele>22</ele>
        <time>2021-03-24T15:12:17Z</time>
      </trkpt>
      <trkpt lat="49.19139" lon="-0.3745">
        <ele>37</ele>
        <time>2021-03-24T15:13:12Z</time>
      </trkpt>
      <trkpt lat="49.19159" lon="-0.37491">
        <ele>39</ele>
        <time>2021-03-24T15:13:18Z</time>
      </trkpt>
      <trkpt lat="49.19164" lon="-0.375">
        <ele>39</ele>
        <time>2021-03-24T15:13:20Z</time>
      </trkpt>
      <trkpt lat="49.19169" lon="-0.37506">
        <ele>39</ele>
        <time>2021-03-24T15:13:21Z</time>
      </trkpt>
      <trkpt lat="49.19178" lon="-0.37514">
        <ele>39</ele>
        <time>2021-03-24T15:13:23Z</time>
      </trkpt>
      <trkpt lat="49.19179" lon="-0.37514">
        <ele>39</ele>
        <time>2021-03-24T15:13:23Z</time>
      </trkpt>
      <trkpt lat="49.19182" lon="-0.37516">
        <ele>39</ele>
        <time>2021-03-24T15:13:23Z</time>
      </trkpt>
      <trkpt lat="49.19191" lon="-0.37518">
        <ele>39</ele>
        <time>2021-03-24T15:13:25Z</time>
      </trkpt>
      <trkpt lat="49.19194" lon="-0.37517">
        <ele>39</ele>
        <time>2021-03-24T15:13:26Z</time>
      </trkpt>
      <trkpt lat="49.19212" lon="-0.37505">
        <ele>39</ele>
        <time>2021-03-24T15:13:29Z</time>
      </trkpt>
      <trkpt lat="49.19222" lon="-0.37501">
        <ele>39</ele>
        <time>2021-03-24T15:13:31Z</time>
      </trkpt>
      <trkpt lat="49.19232" lon="-0.37497">
        <ele>39</ele>
        <time>2021-03-24T15:13:33Z</time>
      </trkpt>
      <trkpt lat="49.19243" lon="-0.37538">
        <ele>39</ele>
        <time>2021-03-24T15:13:38Z</time>
      </trkpt>
      <trkpt lat="49.19249" lon="-0.37546">
        <ele>40</ele>
        <time>2021-03-24T15:13:39Z</time>
      </trkpt>
      <trkpt lat="49.19291" lon="-0.37569">
        <ele>40</ele>
        <time>2021-03-24T15:13:47Z</time>
      </trkpt>
      <trkpt lat="49.19314" lon="-0.37589">
        <ele>40</ele>
        <time>2021-03-24T15:13:52Z</time>
      </trkpt>
      <trkpt lat="49.19343" lon="-0.37625">
        <ele>42</ele>
        <time>2021-03-24T15:13:59Z</time>
      </trkpt>
      <trkpt lat="49.19397" lon="-0.37681">
        <ele>42</ele>
        <time>2021-03-24T15:14:10Z</time>
      </trkpt>
      <trkpt lat="49.19411" lon="-0.37689">
        <ele>42</ele>
        <time>2021-03-24T15:14:13Z</time>
      </trkpt>
      <trkpt lat="49.19431" lon="-0.37696">
        <ele>42</ele>
        <time>2021-03-24T15:14:17Z</time>
      </trkpt>
      <trkpt lat="49.19471" lon="-0.37718">
        <ele>41</ele>
        <time>2021-03-24T15:14:24Z</time>
      </trkpt>
      <trkpt lat="49.19519" lon="-0.37764">
        <ele>39</ele>
        <time>2021-03-24T15:14:34Z</time>
      </trkpt>
      <trkpt lat="49.19521" lon="-0.37781">
        <ele>38</ele>
        <time>2021-03-24T15:14:36Z</time>
      </trkpt>
      <trkpt lat="49.19522" lon="-0.37807">
        <ele>39</ele>
        <time>2021-03-24T15:14:39Z</time>
      </trkpt>
      <trkpt lat="49.19547" lon="-0.37848">
        <ele>39</ele>
        <time>2021-03-24T15:14:46Z</time>
      </trkpt>
      <trkpt lat="49.1955" lon="-0.3791">
        <ele>39</ele>
        <time>2021-03-24T15:14:53Z</time>
      </trkpt>
      <trkpt lat="49.19545" lon="-0.37963">
        <ele>40</ele>
        <time>2021-03-24T15:14:59Z</time>
      </trkpt>
      <trkpt lat="49.19548" lon="-0.37975">
        <ele>40</ele>
        <time>2021-03-24T15:15:01Z</time>
      </trkpt>
      <trkpt lat="49.19551" lon="-0.37979">
        <ele>40</ele>
        <time>2021-03-24T15:15:01Z</time>
      </trkpt>
      <trkpt lat="49.19556" lon="-0.37978">
        <ele>40</ele>
        <time>2021-03-24T15:15:02Z</time>
      </trkpt>
      <trkpt lat="49.19559" lon="-0.3797">
        <ele>40</ele>
        <time>2021-03-24T15:15:03Z</time>
      </trkpt>
      <trkpt lat="49.19576" lon="-0.37862">
        <ele>40</ele>
        <time>2021-03-24T15:15:16Z</time>
      </trkpt>
      <trkpt lat="49.1958" lon="-0.37851">
        <ele>40</ele>
        <time>2021-03-24T15:15:18Z</time>
      </trkpt>
      <trkpt lat="49.19586" lon="-0.37842">
        <ele>40</ele>
        <time>2021-03-24T15:15:19Z</time>
      </trkpt>
      <trkpt lat="49.19589" lon="-0.37841">
        <ele>40</ele>
        <time>2021-03-24T15:15:20Z</time>
      </trkpt>
      <trkpt lat="49.19601" lon="-0.37847">
        <ele>40</ele>
        <time>2021-03-24T15:15:22Z</time>
      </trkpt>
      <trkpt lat="49.19609" lon="-0.37855">
        <ele>41</ele>
        <time>2021-03-24T15:15:24Z</time>
      </trkpt>
      <trkpt lat="49.19641" lon="-0.37885">
        <ele>42</ele>
        <time>2021-03-24T15:15:30Z</time>
      </trkpt>
      <trkpt lat="49.19642" lon="-0.37886">
        <ele>43</ele>
        <time>2021-03-24T15:15:31Z</time>
      </trkpt>
      <trkpt lat="49.19677" lon="-0.3792">
        <ele>45</ele>
        <time>2021-03-24T15:15:38Z</time>
      </trkpt>
      <trkpt lat="49.19678" lon="-0.37928">
        <ele>45</ele>
        <time>2021-03-24T15:15:39Z</time>
      </trkpt>
      <trkpt lat="49.19682" lon="-0.37947">
        <ele>45</ele>
        <time>2021-03-24T15:15:41Z</time>
      </trkpt>
      <trkpt lat="49.19716" lon="-0.38053">
        <ele>47</ele>
        <time>2021-03-24T15:15:55Z</time>
      </trkpt>
      <trkpt lat="49.19742" lon="-0.38129">
        <ele>50</ele>
        <time>2021-03-24T15:16:05Z</time>
      </trkpt>
      <trkpt lat="49.1977" lon="-0.38209">
        <ele>53</ele>
        <time>2021-03-24T15:16:16Z</time>
      </trkpt>
      <trkpt lat="49.19804" lon="-0.38294">
        <ele>56</ele>
        <time>2021-03-24T15:16:27Z</time>
      </trkpt>
      <trkpt lat="49.19827" lon="-0.38346">
        <ele>57</ele>
        <time>2021-03-24T15:16:34Z</time>
      </trkpt>
      <trkpt lat="49.19834" lon="-0.38343">
        <ele>57</ele>
        <time>2021-03-24T15:16:36Z</time>
      </trkpt>
      <trkpt lat="49.19862" lon="-0.38408">
        <ele>57</ele>
        <time>2021-03-24T15:16:45Z</time>
      </trkpt>
      <trkpt lat="49.19874" lon="-0.38426">
        <ele>58</ele>
        <time>2021-03-24T15:16:48Z</time>
      </trkpt>
      <trkpt lat="49.19924" lon="-0.38522">
        <ele>61</ele>
        <time>2021-03-24T15:17:02Z</time>
      </trkpt>
      <trkpt lat="49.20003" lon="-0.38663">
        <ele>66</ele>
        <time>2021-03-24T15:17:24Z</time>
      </trkpt>
      <trkpt lat="49.20076" lon="-0.38781">
        <ele>65</ele>
        <time>2021-03-24T15:17:42Z</time>
      </trkpt>
      <trkpt lat="49.20083" lon="-0.3879">
        <ele>65</ele>
        <time>2021-03-24T15:17:44Z</time>
      </trkpt>
      <trkpt lat="49.20095" lon="-0.38802">
        <ele>64</ele>
        <time>2021-03-24T15:17:47Z</time>
      </trkpt>
      <trkpt lat="49.20103" lon="-0.38803">
        <ele>65</ele>
        <time>2021-03-24T15:17:48Z</time>
      </trkpt>
      <trkpt lat="49.2011" lon="-0.3881">
        <ele>65</ele>
        <time>2021-03-24T15:17:50Z</time>
      </trkpt>
      <trkpt lat="49.20112" lon="-0.3882">
        <ele>65</ele>
        <time>2021-03-24T15:17:51Z</time>
      </trkpt>
      <trkpt lat="49.20111" lon="-0.38833">
        <ele>64</ele>
        <time>2021-03-24T15:17:52Z</time>
      </trkpt>
      <trkpt lat="49.20117" lon="-0.38848">
        <ele>65</ele>
        <time>2021-03-24T15:17:54Z</time>
      </trkpt>
      <trkpt lat="49.20123" lon="-0.38853">
        <ele>65</ele>
        <time>2021-03-24T15:17:56Z</time>
      </trkpt>
      <trkpt lat="49.20272" lon="-0.391">
        <ele>67</ele>
        <time>2021-03-24T15:18:35Z</time>
      </trkpt>
      <trkpt lat="49.20277" lon="-0.39118">
        <ele>67</ele>
        <time>2021-03-24T15:18:37Z</time>
      </trkpt>
      <trkpt lat="49.20283" lon="-0.39109">
        <ele>67</ele>
        <time>2021-03-24T15:18:38Z</time>
      </trkpt>
      <trkpt lat="49.2029" lon="-0.39103">
        <ele>67</ele>
        <time>2021-03-24T15:18:40Z</time>
      </trkpt>
      <trkpt lat="49.20299" lon="-0.39101">
        <ele>67</ele>
        <time>2021-03-24T15:18:41Z</time>
      </trkpt>
      <trkpt lat="49.20308" lon="-0.39102">
        <ele>67</ele>
        <time>2021-03-24T15:18:43Z</time>
      </trkpt>
      <trkpt lat="49.20316" lon="-0.39107">
        <ele>68</ele>
        <time>2021-03-24T15:18:45Z</time>
      </trkpt>
      <trkpt lat="49.20323" lon="-0.39115">
        <ele>68</ele>
        <time>2021-03-24T15:18:46Z</time>
      </trkpt>
      <trkpt lat="49.20328" lon="-0.39127">
        <ele>68</ele>
        <time>2021-03-24T15:18:48Z</time>
      </trkpt>
      <trkpt lat="49.2033" lon="-0.39135">
        <ele>68</ele>
        <time>2021-03-24T15:18:49Z</time>
      </trkpt>
      <trkpt lat="49.20331" lon="-0.39153">
        <ele>68</ele>
        <time>2021-03-24T15:18:51Z</time>
      </trkpt>
      <trkpt lat="49.20327" lon="-0.39171">
        <ele>68</ele>
        <time>2021-03-24T15:18:53Z</time>
      </trkpt>
      <trkpt lat="49.20341" lon="-0.39184">
        <ele>68</ele>
        <time>2021-03-24T15:18:56Z</time>
      </trkpt>
      <trkpt lat="49.20362" lon="-0.39205">
        <ele>68</ele>
        <time>2021-03-24T15:19:01Z</time>
      </trkpt>
      <trkpt lat="49.20389" lon="-0.39231">
        <ele>68</ele>
        <time>2021-03-24T15:19:06Z</time>
      </trkpt>
      <trkpt lat="49.20394" lon="-0.39236">
        <ele>68</ele>
        <time>2021-03-24T15:19:07Z</time>
      </trkpt>
      <trkpt lat="49.20412" lon="-0.39252">
        <ele>68</ele>
        <time>2021-03-24T15:19:11Z</time>
      </trkpt>
      <trkpt lat="49.2045" lon="-0.39296">
        <ele>67</ele>
        <time>2021-03-24T15:19:19Z</time>
      </trkpt>
      <trkpt lat="49.20462" lon="-0.39313">
        <ele>68</ele>
        <time>2021-03-24T15:19:22Z</time>
      </trkpt>
      <trkpt lat="49.20471" lon="-0.39326">
        <ele>68</ele>
        <time>2021-03-24T15:19:25Z</time>
      </trkpt>
      <trkpt lat="49.20513" lon="-0.3939">
        <ele>68</ele>
        <time>2021-03-24T15:19:35Z</time>
      </trkpt>
      <trkpt lat="49.20579" lon="-0.39494">
        <ele>70</ele>
        <time>2021-03-24T15:19:52Z</time>
      </trkpt>
      <trkpt lat="49.20604" lon="-0.3954">
        <ele>70</ele>
        <time>2021-03-24T15:19:59Z</time>
      </trkpt>
      <trkpt lat="49.20642" lon="-0.39619">
        <ele>70</ele>
        <time>2021-03-24T15:20:10Z</time>
      </trkpt>
      <trkpt lat="49.2066" lon="-0.39664">
        <ele>72</ele>
        <time>2021-03-24T15:20:16Z</time>
      </trkpt>
      <trkpt lat="49.20722" lon="-0.39837">
        <ele>71</ele>
        <time>2021-03-24T15:20:39Z</time>
      </trkpt>
      <trkpt lat="49.20752" lon="-0.39905">
        <ele>72</ele>
        <time>2021-03-24T15:20:49Z</time>
      </trkpt>
      <trkpt lat="49.20785" lon="-0.39973">
        <ele>73</ele>
        <time>2021-03-24T15:20:59Z</time>
      </trkpt>
      <trkpt lat="49.20801" lon="-0.40008">
        <ele>74</ele>
        <time>2021-03-24T15:21:04Z</time>
      </trkpt>
      <trkpt lat="49.20845" lon="-0.40101">
        <ele>73</ele>
        <time>2021-03-24T15:21:17Z</time>
      </trkpt>
      <trkpt lat="49.20887" lon="-0.40204">
        <ele>73</ele>
        <time>2021-03-24T15:21:31Z</time>
      </trkpt>
      <trkpt lat="49.20911" lon="-0.40264">
        <ele>73</ele>
        <time>2021-03-24T15:21:39Z</time>
      </trkpt>
      <trkpt lat="49.20914" lon="-0.40273">
        <ele>73</ele>
        <time>2021-03-24T15:21:41Z</time>
      </trkpt>
      <trkpt lat="49.20965" lon="-0.40401">
        <ele>75</ele>
        <time>2021-03-24T15:21:58Z</time>
      </trkpt>
      <trkpt lat="49.20985" lon="-0.40441">
        <ele>75</ele>
        <time>2021-03-24T15:22:04Z</time>
      </trkpt>
      <trkpt lat="49.20991" lon="-0.40457">
        <ele>75</ele>
        <time>2021-03-24T15:22:06Z</time>
      </trkpt>
      <trkpt lat="49.21021" lon="-0.40537">
        <ele>75</ele>
        <time>2021-03-24T15:22:17Z</time>
      </trkpt>
      <trkpt lat="49.21034" lon="-0.40571">
        <ele>75</ele>
        <time>2021-03-24T15:22:21Z</time>
      </trkpt>
      <trkpt lat="49.2105" lon="-0.4062">
        <ele>74</ele>
        <time>2021-03-24T15:22:28Z</time>
      </trkpt>
      <trkpt lat="49.21058" lon="-0.40648">
        <ele>74</ele>
        <time>2021-03-24T15:22:31Z</time>
      </trkpt>
      <trkpt lat="49.21065" lon="-0.4065">
        <ele>74</ele>
        <time>2021-03-24T15:22:32Z</time>
      </trkpt>
      <trkpt lat="49.21072" lon="-0.40657">
        <ele>74</ele>
        <time>2021-03-24T15:22:34Z</time>
      </trkpt>
      <trkpt lat="49.21075" lon="-0.40664">
        <ele>74</ele>
        <time>2021-03-24T15:22:35Z</time>
      </trkpt>
      <trkpt lat="49.21076" lon="-0.40668">
        <ele>74</ele>
        <time>2021-03-24T15:22:35Z</time>
      </trkpt>
      <trkpt lat="49.21077" lon="-0.40671">
        <ele>74</ele>
        <time>2021-03-24T15:22:36Z</time>
      </trkpt>
      <trkpt lat="49.21077" lon="-0.40676">
        <ele>74</ele>
        <time>2021-03-24T15:22:36Z</time>
      </trkpt>
      <trkpt lat="49.21084" lon="-0.4068">
        <ele>74</ele>
        <time>2021-03-24T15:22:38Z</time>
      </trkpt>
      <trkpt lat="49.21103" lon="-0.40727">
        <ele>73</ele>
        <time>2021-03-24T15:22:44Z</time>
      </trkpt>
      <trkpt lat="49.21112" lon="-0.40757">
        <ele>73</ele>
        <time>2021-03-24T15:22:48Z</time>
      </trkpt>
      <trkpt lat="49.21133" lon="-0.40803">
        <ele>73</ele>
        <time>2021-03-24T15:22:55Z</time>
      </trkpt>
      <trkpt lat="49.21176" lon="-0.40879">
        <ele>74</ele>
        <time>2021-03-24T15:23:06Z</time>
      </trkpt>
      <trkpt lat="49.21275" lon="-0.41023">
        <ele>74</ele>
        <time>2021-03-24T15:23:30Z</time>
      </trkpt>
      <trkpt lat="49.21352" lon="-0.41146">
        <ele>71</ele>
        <time>2021-03-24T15:23:50Z</time>
      </trkpt>
      <trkpt lat="49.21374" lon="-0.41187">
        <ele>71</ele>
        <time>2021-03-24T15:23:56Z</time>
      </trkpt>
      <trkpt lat="49.21443" lon="-0.41298">
        <ele>70</ele>
        <time>2021-03-24T15:24:14Z</time>
      </trkpt>
      <trkpt lat="49.21477" lon="-0.41342">
        <ele>70</ele>
        <time>2021-03-24T15:24:22Z</time>
      </trkpt>
      <trkpt lat="49.21591" lon="-0.41466">
        <ele>69</ele>
        <time>2021-03-24T15:24:47Z</time>
      </trkpt>
      <trkpt lat="49.21612" lon="-0.41492">
        <ele>69</ele>
        <time>2021-03-24T15:24:52Z</time>
      </trkpt>
      <trkpt lat="49.21609" lon="-0.41497">
        <ele>69</ele>
        <time>2021-03-24T15:24:53Z</time>
      </trkpt>
      <trkpt lat="49.21616" lon="-0.41504">
        <ele>69</ele>
        <time>2021-03-24T15:24:54Z</time>
      </trkpt>
      <trkpt lat="49.21618" lon="-0.41502">
        <ele>69</ele>
        <time>2021-03-24T15:24:55Z</time>
      </trkpt>
      <trkpt lat="49.21625" lon="-0.415">
        <ele>70</ele>
        <time>2021-03-24T15:24:56Z</time>
      </trkpt>
      <trkpt lat="49.21631" lon="-0.41503">
        <ele>70</ele>
        <time>2021-03-24T15:24:57Z</time>
      </trkpt>
      <trkpt lat="49.21633" lon="-0.41504">
        <ele>70</ele>
        <time>2021-03-24T15:24:57Z</time>
      </trkpt>
      <trkpt lat="49.21634" lon="-0.41506">
        <ele>70</ele>
        <time>2021-03-24T15:24:58Z</time>
      </trkpt>
      <trkpt lat="49.21637" lon="-0.41512">
        <ele>70</ele>
        <time>2021-03-24T15:24:59Z</time>
      </trkpt>
      <trkpt lat="49.21638" lon="-0.41521">
        <ele>69</ele>
        <time>2021-03-24T15:25:00Z</time>
      </trkpt>
      <trkpt lat="49.21636" lon="-0.41532">
        <ele>69</ele>
        <time>2021-03-24T15:25:01Z</time>
      </trkpt>
      <trkpt lat="49.21634" lon="-0.41535">
        <ele>69</ele>
        <time>2021-03-24T15:25:01Z</time>
      </trkpt>
      <trkpt lat="49.2164" lon="-0.41548">
        <ele>69</ele>
        <time>2021-03-24T15:25:03Z</time>
      </trkpt>
      <trkpt lat="49.21652" lon="-0.41572">
        <ele>69</ele>
        <time>2021-03-24T15:25:07Z</time>
      </trkpt>
      <trkpt lat="49.21679" lon="-0.41641">
        <ele>68</ele>
        <time>2021-03-24T15:25:16Z</time>
      </trkpt>
      <trkpt lat="49.21719" lon="-0.41744">
        <ele>68</ele>
        <time>2021-03-24T15:25:30Z</time>
      </trkpt>
      <trkpt lat="49.21758" lon="-0.41841">
        <ele>68</ele>
        <time>2021-03-24T15:25:43Z</time>
      </trkpt>
      <trkpt lat="49.21816" lon="-0.41992">
        <ele>65</ele>
        <time>2021-03-24T15:26:04Z</time>
      </trkpt>
      <trkpt lat="49.21819" lon="-0.42001">
        <ele>65</ele>
        <time>2021-03-24T15:26:05Z</time>
      </trkpt>
      <trkpt lat="49.2184" lon="-0.42051">
        <ele>65</ele>
        <time>2021-03-24T15:26:12Z</time>
      </trkpt>
      <trkpt lat="49.21846" lon="-0.42066">
        <ele>65</ele>
        <time>2021-03-24T15:26:14Z</time>
      </trkpt>
      <trkpt lat="49.21852" lon="-0.42081">
        <ele>64</ele>
        <time>2021-03-24T15:26:16Z</time>
      </trkpt>
      <trkpt lat="49.21858" lon="-0.42096">
        <ele>65</ele>
        <time>2021-03-24T15:26:18Z</time>
      </trkpt>
      <trkpt lat="49.21863" lon="-0.42115">
        <ele>65</ele>
        <time>2021-03-24T15:26:20Z</time>
      </trkpt>
      <trkpt lat="49.21873" lon="-0.42155">
        <ele>65</ele>
        <time>2021-03-24T15:26:25Z</time>
      </trkpt>
      <trkpt lat="49.21881" lon="-0.42191">
        <ele>65</ele>
        <time>2021-03-24T15:26:30Z</time>
      </trkpt>
      <trkpt lat="49.21895" lon="-0.42247">
        <ele>64</ele>
        <time>2021-03-24T15:26:37Z</time>
      </trkpt>
      <trkpt lat="49.21911" lon="-0.42309">
        <ele>63</ele>
        <time>2021-03-24T15:26:44Z</time>
      </trkpt>
      <trkpt lat="49.21916" lon="-0.42325">
        <ele>63</ele>
        <time>2021-03-24T15:26:46Z</time>
      </trkpt>
      <trkpt lat="49.21937" lon="-0.42404">
        <ele>63</ele>
        <time>2021-03-24T15:26:56Z</time>
      </trkpt>
      <trkpt lat="49.21956" lon="-0.42448">
        <ele>63</ele>
        <time>2021-03-24T15:27:02Z</time>
      </trkpt>
      <trkpt lat="49.22" lon="-0.42538">
        <ele>62</ele>
        <time>2021-03-24T15:27:16Z</time>
      </trkpt>
      <trkpt lat="49.22008" lon="-0.42551">
        <ele>63</ele>
        <time>2021-03-24T15:27:18Z</time>
      </trkpt>
      <trkpt lat="49.22075" lon="-0.42672">
        <ele>61</ele>
        <time>2021-03-24T15:27:36Z</time>
      </trkpt>
      <trkpt lat="49.22094" lon="-0.42703">
        <ele>61</ele>
        <time>2021-03-24T15:27:41Z</time>
      </trkpt>
      <trkpt lat="49.22138" lon="-0.42757">
        <ele>62</ele>
        <time>2021-03-24T15:27:51Z</time>
      </trkpt>
      <trkpt lat="49.22148" lon="-0.42769">
        <ele>62</ele>
        <time>2021-03-24T15:27:53Z</time>
      </trkpt>
      <trkpt lat="49.22183" lon="-0.42803">
        <ele>61</ele>
        <time>2021-03-24T15:28:01Z</time>
      </trkpt>
      <trkpt lat="49.22257" lon="-0.42873">
        <ele>60</ele>
        <time>2021-03-24T15:28:16Z</time>
      </trkpt>
      <trkpt lat="49.22319" lon="-0.42941">
        <ele>61</ele>
        <time>2021-03-24T15:28:30Z</time>
      </trkpt>
      <trkpt lat="49.22374" lon="-0.43022">
        <ele>62</ele>
        <time>2021-03-24T15:28:43Z</time>
      </trkpt>
      <trkpt lat="49.2242" lon="-0.43108">
        <ele>61</ele>
        <time>2021-03-24T15:28:56Z</time>
      </trkpt>
      <trkpt lat="49.22453" lon="-0.432">
        <ele>59</ele>
        <time>2021-03-24T15:29:08Z</time>
      </trkpt>
      <trkpt lat="49.22496" lon="-0.43349">
        <ele>59</ele>
        <time>2021-03-24T15:29:27Z</time>
      </trkpt>
      <trkpt lat="49.22523" lon="-0.43422">
        <ele>58</ele>
        <time>2021-03-24T15:29:37Z</time>
      </trkpt>
      <trkpt lat="49.22557" lon="-0.4349">
        <ele>57</ele>
        <time>2021-03-24T15:29:47Z</time>
      </trkpt>
      <trkpt lat="49.22568" lon="-0.43511">
        <ele>57</ele>
        <time>2021-03-24T15:29:50Z</time>
      </trkpt>
      <trkpt lat="49.22619" lon="-0.43584">
        <ele>57</ele>
        <time>2021-03-24T15:30:03Z</time>
      </trkpt>
      <trkpt lat="49.22689" lon="-0.43654">
        <ele>54</ele>
        <time>2021-03-24T15:30:17Z</time>
      </trkpt>
      <trkpt lat="49.22767" lon="-0.43725">
        <ele>50</ele>
        <time>2021-03-24T15:30:34Z</time>
      </trkpt>
      <trkpt lat="49.2278" lon="-0.43738">
        <ele>49</ele>
        <time>2021-03-24T15:30:36Z</time>
      </trkpt>
      <trkpt lat="49.22822" lon="-0.43762">
        <ele>49</ele>
        <time>2021-03-24T15:30:44Z</time>
      </trkpt>
      <trkpt lat="49.22869" lon="-0.43787">
        <ele>49</ele>
        <time>2021-03-24T15:30:53Z</time>
      </trkpt>
      <trkpt lat="49.22871" lon="-0.43788">
        <ele>49</ele>
        <time>2021-03-24T15:30:54Z</time>
      </trkpt>
      <trkpt lat="49.22873" lon="-0.43789">
        <ele>49</ele>
        <time>2021-03-24T15:30:54Z</time>
      </trkpt>
      <trkpt lat="49.22878" lon="-0.43793">
        <ele>48</ele>
        <time>2021-03-24T15:30:55Z</time>
      </trkpt>
      <trkpt lat="49.22905" lon="-0.43809">
        <ele>48</ele>
        <time>2021-03-24T15:31:00Z</time>
      </trkpt>
      <trkpt lat="49.2294" lon="-0.43841">
        <ele>47</ele>
        <time>2021-03-24T15:31:07Z</time>
      </trkpt>
      <trkpt lat="49.22974" lon="-0.43883">
        <ele>44</ele>
        <time>2021-03-24T15:31:15Z</time>
      </trkpt>
      <trkpt lat="49.22981" lon="-0.43893">
        <ele>44</ele>
        <time>2021-03-24T15:31:17Z</time>
      </trkpt>
      <trkpt lat="49.23007" lon="-0.43932">
        <ele>42</ele>
        <time>2021-03-24T15:31:23Z</time>
      </trkpt>
      <trkpt lat="49.2303" lon="-0.43973">
        <ele>42</ele>
        <time>2021-03-24T15:31:30Z</time>
      </trkpt>
      <trkpt lat="49.23054" lon="-0.44006">
        <ele>41</ele>
        <time>2021-03-24T15:31:35Z</time>
      </trkpt>
      <trkpt lat="49.23059" lon="-0.44014">
        <ele>41</ele>
        <time>2021-03-24T15:31:37Z</time>
      </trkpt>
      <trkpt lat="49.23084" lon="-0.44042">
        <ele>39</ele>
        <time>2021-03-24T15:31:42Z</time>
      </trkpt>
      <trkpt lat="49.23106" lon="-0.44067">
        <ele>38</ele>
        <time>2021-03-24T15:31:47Z</time>
      </trkpt>
      <trkpt lat="49.23106" lon="-0.44067">
        <ele>38</ele>
        <time>2021-03-24T15:31:47Z</time>
      </trkpt>
      <trkpt lat="49.23116" lon="-0.44077">
        <ele>38</ele>
        <time>2021-03-24T15:31:49Z</time>
      </trkpt>
      <trkpt lat="49.23148" lon="-0.44108">
        <ele>37</ele>
        <time>2021-03-24T15:31:56Z</time>
      </trkpt>
      <trkpt lat="49.23167" lon="-0.44127">
        <ele>36</ele>
        <time>2021-03-24T15:32:00Z</time>
      </trkpt>
      <trkpt lat="49.23208" lon="-0.44171">
        <ele>35</ele>
        <time>2021-03-24T15:32:09Z</time>
      </trkpt>
      <trkpt lat="49.23291" lon="-0.44271">
        <ele>34</ele>
        <time>2021-03-24T15:32:28Z</time>
      </trkpt>
      <trkpt lat="49.23309" lon="-0.44297">
        <ele>34</ele>
        <time>2021-03-24T15:32:32Z</time>
      </trkpt>
      <trkpt lat="49.23315" lon="-0.44308">
        <ele>34</ele>
        <time>2021-03-24T15:32:34Z</time>
      </trkpt>
      <trkpt lat="49.23335" lon="-0.44347">
        <ele>33</ele>
        <time>2021-03-24T15:32:39Z</time>
      </trkpt>
      <trkpt lat="49.23345" lon="-0.44367">
        <ele>34</ele>
        <time>2021-03-24T15:32:42Z</time>
      </trkpt>
      <trkpt lat="49.23355" lon="-0.44386">
        <ele>34</ele>
        <time>2021-03-24T15:32:45Z</time>
      </trkpt>
      <trkpt lat="49.23384" lon="-0.44444">
        <ele>34</ele>
        <time>2021-03-24T15:32:54Z</time>
      </trkpt>
      <trkpt lat="49.23387" lon="-0.44452">
        <ele>34</ele>
        <time>2021-03-24T15:32:55Z</time>
      </trkpt>
      <trkpt lat="49.2339" lon="-0.44458">
        <ele>34</ele>
        <time>2021-03-24T15:32:56Z</time>
      </trkpt>
      <trkpt lat="49.23392" lon="-0.44462">
        <ele>34</ele>
        <time>2021-03-24T15:32:56Z</time>
      </trkpt>
      <trkpt lat="49.23416" lon="-0.44514">
        <ele>34</ele>
        <time>2021-03-24T15:33:04Z</time>
      </trkpt>
      <trkpt lat="49.23434" lon="-0.44555">
        <ele>34</ele>
        <time>2021-03-24T15:33:09Z</time>
      </trkpt>
      <trkpt lat="49.23445" lon="-0.44588">
        <ele>34</ele>
        <time>2021-03-24T15:33:14Z</time>
      </trkpt>
      <trkpt lat="49.23467" lon="-0.44648">
        <ele>34</ele>
        <time>2021-03-24T15:33:22Z</time>
      </trkpt>
      <trkpt lat="49.23473" lon="-0.44662">
        <ele>34</ele>
        <time>2021-03-24T15:33:24Z</time>
      </trkpt>
      <trkpt lat="49.23476" lon="-0.44671">
        <ele>34</ele>
        <time>2021-03-24T15:33:25Z</time>
      </trkpt>
      <trkpt lat="49.23538" lon="-0.44783">
        <ele>36</ele>
        <time>2021-03-24T15:33:42Z</time>
      </trkpt>
      <trkpt lat="49.23568" lon="-0.44827">
        <ele>36</ele>
        <time>2021-03-24T15:33:49Z</time>
      </trkpt>
      <trkpt lat="49.23636" lon="-0.44918">
        <ele>37</ele>
        <time>2021-03-24T15:34:05Z</time>
      </trkpt>
      <trkpt lat="49.23642" lon="-0.44926">
        <ele>37</ele>
        <time>2021-03-24T15:34:07Z</time>
      </trkpt>
      <trkpt lat="49.23647" lon="-0.44931">
        <ele>37</ele>
        <time>2021-03-24T15:34:08Z</time>
      </trkpt>
      <trkpt lat="49.23653" lon="-0.44938">
        <ele>37</ele>
        <time>2021-03-24T15:34:09Z</time>
      </trkpt>
      <trkpt lat="49.23655" lon="-0.4494">
        <ele>37</ele>
        <time>2021-03-24T15:34:09Z</time>
      </trkpt>
      <trkpt lat="49.2368" lon="-0.44962">
        <ele>38</ele>
        <time>2021-03-24T15:34:15Z</time>
      </trkpt>
      <trkpt lat="49.23711" lon="-0.44986">
        <ele>39</ele>
        <time>2021-03-24T15:34:21Z</time>
      </trkpt>
      <trkpt lat="49.23755" lon="-0.4502">
        <ele>39</ele>
        <time>2021-03-24T15:34:30Z</time>
      </trkpt>
      <trkpt lat="49.23763" lon="-0.45024">
        <ele>39</ele>
        <time>2021-03-24T15:34:31Z</time>
      </trkpt>
      <trkpt lat="49.23787" lon="-0.45038">
        <ele>40</ele>
        <time>2021-03-24T15:34:36Z</time>
      </trkpt>
      <trkpt lat="49.238" lon="-0.45045">
        <ele>41</ele>
        <time>2021-03-24T15:34:38Z</time>
      </trkpt>
      <trkpt lat="49.23816" lon="-0.45054">
        <ele>41</ele>
        <time>2021-03-24T15:34:41Z</time>
      </trkpt>
      <trkpt lat="49.23837" lon="-0.45061">
        <ele>42</ele>
        <time>2021-03-24T15:34:45Z</time>
      </trkpt>
      <trkpt lat="49.23855" lon="-0.45059">
        <ele>41</ele>
        <time>2021-03-24T15:34:48Z</time>
      </trkpt>
      <trkpt lat="49.23875" lon="-0.45048">
        <ele>40</ele>
        <time>2021-03-24T15:34:52Z</time>
      </trkpt>
      <trkpt lat="49.23894" lon="-0.45044">
        <ele>40</ele>
        <time>2021-03-24T15:34:55Z</time>
      </trkpt>
      <trkpt lat="49.23913" lon="-0.45052">
        <ele>39</ele>
        <time>2021-03-24T15:34:59Z</time>
      </trkpt>
      <trkpt lat="49.23919" lon="-0.45058">
        <ele>39</ele>
        <time>2021-03-24T15:35:00Z</time>
      </trkpt>
      <trkpt lat="49.23926" lon="-0.45066">
        <ele>39</ele>
        <time>2021-03-24T15:35:02Z</time>
      </trkpt>
      <trkpt lat="49.23991" lon="-0.45179">
        <ele>37</ele>
        <time>2021-03-24T15:35:19Z</time>
      </trkpt>
      <trkpt lat="49.24013" lon="-0.45219">
        <ele>36</ele>
        <time>2021-03-24T15:35:25Z</time>
      </trkpt>
      <trkpt lat="49.24017" lon="-0.45223">
        <ele>36</ele>
        <time>2021-03-24T15:35:26Z</time>
      </trkpt>
      <trkpt lat="49.24018" lon="-0.45224">
        <ele>36</ele>
        <time>2021-03-24T15:35:26Z</time>
      </trkpt>
      <trkpt lat="49.24032" lon="-0.45237">
        <ele>36</ele>
        <time>2021-03-24T15:35:29Z</time>
      </trkpt>
      <trkpt lat="49.24074" lon="-0.45258">
        <ele>35</ele>
        <time>2021-03-24T15:35:37Z</time>
      </trkpt>
      <trkpt lat="49.2408" lon="-0.45261">
        <ele>35</ele>
        <time>2021-03-24T15:35:38Z</time>
      </trkpt>
      <trkpt lat="49.2413" lon="-0.45288">
        <ele>37</ele>
        <time>2021-03-24T15:35:48Z</time>
      </trkpt>
      <trkpt lat="49.2415" lon="-0.45311">
        <ele>38</ele>
        <time>2021-03-24T15:35:52Z</time>
      </trkpt>
      <trkpt lat="49.24168" lon="-0.45342">
        <ele>39</ele>
        <time>2021-03-24T15:35:57Z</time>
      </trkpt>
      <trkpt lat="49.24184" lon="-0.45387">
        <ele>42</ele>
        <time>2021-03-24T15:36:03Z</time>
      </trkpt>
      <trkpt lat="49.24201" lon="-0.45502">
        <ele>46</ele>
        <time>2021-03-24T15:36:17Z</time>
      </trkpt>
      <trkpt lat="49.24215" lon="-0.45558">
        <ele>47</ele>
        <time>2021-03-24T15:36:24Z</time>
      </trkpt>
      <trkpt lat="49.2423" lon="-0.45594">
        <ele>48</ele>
        <time>2021-03-24T15:36:28Z</time>
      </trkpt>
      <trkpt lat="49.24248" lon="-0.45627">
        <ele>49</ele>
        <time>2021-03-24T15:36:33Z</time>
      </trkpt>
      <trkpt lat="49.24292" lon="-0.45686">
        <ele>50</ele>
        <time>2021-03-24T15:36:44Z</time>
      </trkpt>
      <trkpt lat="49.24317" lon="-0.4573">
        <ele>51</ele>
        <time>2021-03-24T15:36:51Z</time>
      </trkpt>
      <trkpt lat="49.244" lon="-0.45944">
        <ele>50</ele>
        <time>2021-03-24T15:37:20Z</time>
      </trkpt>
      <trkpt lat="49.24437" lon="-0.46035">
        <ele>50</ele>
        <time>2021-03-24T15:37:32Z</time>
      </trkpt>
      <trkpt lat="49.24457" lon="-0.4602">
        <ele>49</ele>
        <time>2021-03-24T15:37:36Z</time>
      </trkpt>
      <trkpt lat="49.24569" lon="-0.45925">
        <ele>48</ele>
        <time>2021-03-24T15:37:59Z</time>
      </trkpt>
      <trkpt lat="49.24596" lon="-0.45888">
        <ele>48</ele>
        <time>2021-03-24T15:38:05Z</time>
      </trkpt>
      <trkpt lat="49.24606" lon="-0.45868">
        <ele>48</ele>
        <time>2021-03-24T15:38:08Z</time>
      </trkpt>
      <trkpt lat="49.24695" lon="-0.45646">
        <ele>47</ele>
        <time>2021-03-24T15:38:38Z</time>
      </trkpt>
      <trkpt lat="49.24707" lon="-0.45624">
        <ele>46</ele>
        <time>2021-03-24T15:38:42Z</time>
      </trkpt>
      <trkpt lat="49.24721" lon="-0.45613">
        <ele>45</ele>
        <time>2021-03-24T15:38:45Z</time>
      </trkpt>
      <trkpt lat="49.2474" lon="-0.45606">
        <ele>45</ele>
        <time>2021-03-24T15:38:48Z</time>
      </trkpt>
      <trkpt lat="49.24765" lon="-0.45605">
        <ele>45</ele>
        <time>2021-03-24T15:38:52Z</time>
      </trkpt>
      <trkpt lat="49.24841" lon="-0.45619">
        <ele>47</ele>
        <time>2021-03-24T15:39:06Z</time>
      </trkpt>
      <trkpt lat="49.2492" lon="-0.45627">
        <ele>49</ele>
        <time>2021-03-24T15:39:20Z</time>
      </trkpt>
      <trkpt lat="49.24997" lon="-0.45629">
        <ele>49</ele>
        <time>2021-03-24T15:39:34Z</time>
      </trkpt>
      <trkpt lat="49.25091" lon="-0.4564">
        <ele>48</ele>
        <time>2021-03-24T15:39:51Z</time>
      </trkpt>
      <trkpt lat="49.25147" lon="-0.45653">
        <ele>47</ele>
        <time>2021-03-24T15:40:01Z</time>
      </trkpt>
      <trkpt lat="49.252" lon="-0.45675">
        <ele>47</ele>
        <time>2021-03-24T15:40:11Z</time>
      </trkpt>
      <trkpt lat="49.25268" lon="-0.45707">
        <ele>47</ele>
        <time>2021-03-24T15:40:23Z</time>
      </trkpt>
      <trkpt lat="49.25305" lon="-0.45719">
        <ele>46</ele>
        <time>2021-03-24T15:40:30Z</time>
      </trkpt>
      <trkpt lat="49.25564" lon="-0.45792">
        <ele>35</ele>
        <time>2021-03-24T15:41:17Z</time>
      </trkpt>
      <trkpt lat="49.25568" lon="-0.45703">
        <ele>37</ele>
        <time>2021-03-24T15:41:27Z</time>
      </trkpt>
      <trkpt lat="49.25572" lon="-0.45692">
        <ele>36</ele>
        <time>2021-03-24T15:41:29Z</time>
      </trkpt>
      <trkpt lat="49.25578" lon="-0.45683">
        <ele>36</ele>
        <time>2021-03-24T15:41:30Z</time>
      </trkpt>
      <trkpt lat="49.25583" lon="-0.4568">
        <ele>36</ele>
        <time>2021-03-24T15:41:31Z</time>
      </trkpt>
      <trkpt lat="49.25629" lon="-0.45694">
        <ele>33</ele>
        <time>2021-03-24T15:41:39Z</time>
      </trkpt>
      <trkpt lat="49.25714" lon="-0.45725">
        <ele>29</ele>
        <time>2021-03-24T15:41:55Z</time>
      </trkpt>
      <trkpt lat="49.25705" lon="-0.45805">
        <ele>29</ele>
        <time>2021-03-24T15:42:04Z</time>
      </trkpt>
      <trkpt lat="49.25704" lon="-0.45838">
        <ele>29</ele>
        <time>2021-03-24T15:42:08Z</time>
      </trkpt>
      <trkpt lat="49.25751" lon="-0.4583">
        <ele>29</ele>
        <time>2021-03-24T15:42:17Z</time>
      </trkpt>
      <trkpt lat="49.25781" lon="-0.45828">
        <ele>30</ele>
        <time>2021-03-24T15:42:22Z</time>
      </trkpt>
      <trkpt lat="49.2579" lon="-0.45823">
        <ele>30</ele>
        <time>2021-03-24T15:42:24Z</time>
      </trkpt>
      <trkpt lat="49.25807" lon="-0.45803">
        <ele>30</ele>
        <time>2021-03-24T15:42:27Z</time>
      </trkpt>
      <trkpt lat="49.25819" lon="-0.45797">
        <ele>30</ele>
        <time>2021-03-24T15:42:30Z</time>
      </trkpt>
      <trkpt lat="49.25925" lon="-0.45786">
        <ele>34</ele>
        <time>2021-03-24T15:42:49Z</time>
      </trkpt>
      <trkpt lat="49.25974" lon="-0.45774">
        <ele>37</ele>
        <time>2021-03-24T15:42:57Z</time>
      </trkpt>
      <trkpt lat="49.25979" lon="-0.45771">
        <ele>37</ele>
        <time>2021-03-24T15:42:58Z</time>
      </trkpt>
      <trkpt lat="49.26017" lon="-0.45718">
        <ele>38</ele>
        <time>2021-03-24T15:43:08Z</time>
      </trkpt>
      <trkpt lat="49.26028" lon="-0.45705">
        <ele>39</ele>
        <time>2021-03-24T15:43:10Z</time>
      </trkpt>
      <trkpt lat="49.26097" lon="-0.45657">
        <ele>42</ele>
        <time>2021-03-24T15:43:23Z</time>
      </trkpt>
      <trkpt lat="49.2618" lon="-0.45562">
        <ele>43</ele>
        <time>2021-03-24T15:43:42Z</time>
      </trkpt>
      <trkpt lat="49.26334" lon="-0.4536">
        <ele>41</ele>
        <time>2021-03-24T15:44:18Z</time>
      </trkpt>
      <trkpt lat="49.26349" lon="-0.45349">
        <ele>41</ele>
        <time>2021-03-24T15:44:21Z</time>
      </trkpt>
      <trkpt lat="49.26365" lon="-0.45346">
        <ele>41</ele>
        <time>2021-03-24T15:44:24Z</time>
      </trkpt>
      <trkpt lat="49.26402" lon="-0.45349">
        <ele>42</ele>
        <time>2021-03-24T15:44:30Z</time>
      </trkpt>
      <trkpt lat="49.26711" lon="-0.45393">
        <ele>45</ele>
        <time>2021-03-24T15:45:26Z</time>
      </trkpt>
      <trkpt lat="49.26743" lon="-0.45402">
        <ele>46</ele>
        <time>2021-03-24T15:45:31Z</time>
      </trkpt>
      <trkpt lat="49.26877" lon="-0.45451">
        <ele>45</ele>
        <time>2021-03-24T15:45:56Z</time>
      </trkpt>
      <trkpt lat="49.26958" lon="-0.4547">
        <ele>46</ele>
        <time>2021-03-24T15:46:10Z</time>
      </trkpt>
      <trkpt lat="49.27178" lon="-0.45536">
        <ele>46</ele>
        <time>2021-03-24T15:46:50Z</time>
      </trkpt>
      <trkpt lat="49.27237" lon="-0.45543">
        <ele>45</ele>
        <time>2021-03-24T15:47:01Z</time>
      </trkpt>
      <trkpt lat="49.27259" lon="-0.4554">
        <ele>45</ele>
        <time>2021-03-24T15:47:05Z</time>
      </trkpt>
      <trkpt lat="49.2729" lon="-0.45524">
        <ele>45</ele>
        <time>2021-03-24T15:47:11Z</time>
      </trkpt>
      <trkpt lat="49.27337" lon="-0.45472">
        <ele>46</ele>
        <time>2021-03-24T15:47:21Z</time>
      </trkpt>
      <trkpt lat="49.27403" lon="-0.45367">
        <ele>42</ele>
        <time>2021-03-24T15:47:38Z</time>
      </trkpt>
      <trkpt lat="49.27454" lon="-0.45276">
        <ele>37</ele>
        <time>2021-03-24T15:47:52Z</time>
      </trkpt>
      <trkpt lat="49.27482" lon="-0.45213">
        <ele>36</ele>
        <time>2021-03-24T15:48:01Z</time>
      </trkpt>
      <trkpt lat="49.27494" lon="-0.45203">
        <ele>35</ele>
        <time>2021-03-24T15:48:03Z</time>
      </trkpt>
      <trkpt lat="49.27505" lon="-0.452">
        <ele>34</ele>
        <time>2021-03-24T15:48:05Z</time>
      </trkpt>
      <trkpt lat="49.27524" lon="-0.45202">
        <ele>31</ele>
        <time>2021-03-24T15:48:08Z</time>
      </trkpt>
      <trkpt lat="49.27579" lon="-0.45233">
        <ele>25</ele>
        <time>2021-03-24T15:48:19Z</time>
      </trkpt>
      <trkpt lat="49.27601" lon="-0.45244">
        <ele>23</ele>
        <time>2021-03-24T15:48:23Z</time>
      </trkpt>
      <trkpt lat="49.27635" lon="-0.4525">
        <ele>21</ele>
        <time>2021-03-24T15:48:29Z</time>
      </trkpt>
      <trkpt lat="49.27634" lon="-0.45326">
        <ele>21</ele>
        <time>2021-03-24T15:48:38Z</time>
      </trkpt>
      <trkpt lat="49.2764" lon="-0.45387">
        <ele>21</ele>
        <time>2021-03-24T15:48:45Z</time>
      </trkpt>
      <trkpt lat="49.27631" lon="-0.45443">
        <ele>22</ele>
        <time>2021-03-24T15:48:52Z</time>
      </trkpt>
      <trkpt lat="49.27632" lon="-0.45471">
        <ele>22</ele>
        <time>2021-03-24T15:48:55Z</time>
      </trkpt>
      <trkpt lat="49.27639" lon="-0.45488">
        <ele>21</ele>
        <time>2021-03-24T15:48:57Z</time>
      </trkpt>
      <trkpt lat="49.27653" lon="-0.45506">
        <ele>20</ele>
        <time>2021-03-24T15:49:01Z</time>
      </trkpt>
      <trkpt lat="49.27709" lon="-0.4551">
        <ele>21</ele>
        <time>2021-03-24T15:49:11Z</time>
      </trkpt>
      <trkpt lat="49.27743" lon="-0.45525">
        <ele>22</ele>
        <time>2021-03-24T15:49:17Z</time>
      </trkpt>
      <trkpt lat="49.27779" lon="-0.45533">
        <ele>23</ele>
        <time>2021-03-24T15:49:23Z</time>
      </trkpt>
      <trkpt lat="49.27854" lon="-0.455">
        <ele>23</ele>
        <time>2021-03-24T15:49:37Z</time>
      </trkpt>
      <trkpt lat="49.27927" lon="-0.45454">
        <ele>23</ele>
        <time>2021-03-24T15:49:51Z</time>
      </trkpt>
      <trkpt lat="49.28011" lon="-0.45418">
        <ele>22</ele>
        <time>2021-03-24T15:50:07Z</time>
      </trkpt>
      <trkpt lat="49.28184" lon="-0.45378">
        <ele>20</ele>
        <time>2021-03-24T15:50:38Z</time>
      </trkpt>
      <trkpt lat="49.28257" lon="-0.45343">
        <ele>18</ele>
        <time>2021-03-24T15:50:52Z</time>
      </trkpt>
      <trkpt lat="49.28274" lon="-0.45339">
        <ele>18</ele>
        <time>2021-03-24T15:50:55Z</time>
      </trkpt>
      <trkpt lat="49.28284" lon="-0.45342">
        <ele>19</ele>
        <time>2021-03-24T15:50:56Z</time>
      </trkpt>
      <trkpt lat="49.28364" lon="-0.45384">
        <ele>21</ele>
        <time>2021-03-24T15:51:11Z</time>
      </trkpt>
      <trkpt lat="49.28398" lon="-0.45406">
        <ele>19</ele>
        <time>2021-03-24T15:51:18Z</time>
      </trkpt>
      <trkpt lat="49.28422" lon="-0.45432">
        <ele>18</ele>
        <time>2021-03-24T15:51:23Z</time>
      </trkpt>
      <trkpt lat="49.28435" lon="-0.45432">
        <ele>18</ele>
        <time>2021-03-24T15:51:26Z</time>
      </trkpt>
      <trkpt lat="49.28476" lon="-0.4539">
        <ele>16</ele>
        <time>2021-03-24T15:51:34Z</time>
      </trkpt>
      <trkpt lat="49.28481" lon="-0.45386">
        <ele>16</ele>
        <time>2021-03-24T15:51:35Z</time>
      </trkpt>
      <trkpt lat="49.28495" lon="-0.45382">
        <ele>16</ele>
        <time>2021-03-24T15:51:38Z</time>
      </trkpt>
      <trkpt lat="49.28549" lon="-0.4541">
        <ele>15</ele>
        <time>2021-03-24T15:51:48Z</time>
      </trkpt>
      <trkpt lat="49.28639" lon="-0.45473">
        <ele>14</ele>
        <time>2021-03-24T15:52:06Z</time>
      </trkpt>
      <trkpt lat="49.28725" lon="-0.45525">
        <ele>16</ele>
        <time>2021-03-24T15:52:22Z</time>
      </trkpt>
      <trkpt lat="49.28794" lon="-0.45521">
        <ele>16</ele>
        <time>2021-03-24T15:52:34Z</time>
      </trkpt>
      <trkpt lat="49.288" lon="-0.45518">
        <ele>16</ele>
        <time>2021-03-24T15:52:36Z</time>
      </trkpt>
      <trkpt lat="49.28914" lon="-0.45416">
        <ele>17</ele>
        <time>2021-03-24T15:52:59Z</time>
      </trkpt>
      <trkpt lat="49.29045" lon="-0.45318">
        <ele>25</ele>
        <time>2021-03-24T15:53:25Z</time>
      </trkpt>
      <trkpt lat="49.29056" lon="-0.45318">
        <ele>24</ele>
        <time>2021-03-24T15:53:27Z</time>
      </trkpt>
      <trkpt lat="49.29063" lon="-0.45324">
        <ele>22</ele>
        <time>2021-03-24T15:53:28Z</time>
      </trkpt>
      <trkpt lat="49.29075" lon="-0.45345">
        <ele>19</ele>
        <time>2021-03-24T15:53:32Z</time>
      </trkpt>
      <trkpt lat="49.29123" lon="-0.45459">
        <ele>16</ele>
        <time>2021-03-24T15:53:47Z</time>
      </trkpt>
      <trkpt lat="49.29138" lon="-0.45524">
        <ele>15</ele>
        <time>2021-03-24T15:53:55Z</time>
      </trkpt>
      <trkpt lat="49.29154" lon="-0.4571">
        <ele>17</ele>
        <time>2021-03-24T15:54:17Z</time>
      </trkpt>
      <trkpt lat="49.29166" lon="-0.45908">
        <ele>23</ele>
        <time>2021-03-24T15:54:40Z</time>
      </trkpt>
      <trkpt lat="49.29175" lon="-0.45976">
        <ele>23</ele>
        <time>2021-03-24T15:54:48Z</time>
      </trkpt>
      <trkpt lat="49.29203" lon="-0.46078">
        <ele>20</ele>
        <time>2021-03-24T15:55:01Z</time>
      </trkpt>
      <trkpt lat="49.29218" lon="-0.46092">
        <ele>19</ele>
        <time>2021-03-24T15:55:04Z</time>
      </trkpt>
      <trkpt lat="49.29242" lon="-0.46098">
        <ele>17</ele>
        <time>2021-03-24T15:55:08Z</time>
      </trkpt>
      <trkpt lat="49.29275" lon="-0.46094">
        <ele>17</ele>
        <time>2021-03-24T15:55:14Z</time>
      </trkpt>
      <trkpt lat="49.29303" lon="-0.46103">
        <ele>17</ele>
        <time>2021-03-24T15:55:19Z</time>
      </trkpt>
      <trkpt lat="49.29398" lon="-0.46218">
        <ele>13</ele>
        <time>2021-03-24T15:55:41Z</time>
      </trkpt>
      <trkpt lat="49.294" lon="-0.46376">
        <ele>13</ele>
        <time>2021-03-24T15:55:59Z</time>
      </trkpt>
      <trkpt lat="49.29445" lon="-0.46432">
        <ele>12</ele>
        <time>2021-03-24T15:56:10Z</time>
      </trkpt>
      <trkpt lat="49.2952" lon="-0.46494">
        <ele>13</ele>
        <time>2021-03-24T15:56:25Z</time>
      </trkpt>
      <trkpt lat="49.29597" lon="-0.46544">
        <ele>16</ele>
        <time>2021-03-24T15:56:40Z</time>
      </trkpt>
      <trkpt lat="49.29637" lon="-0.46553">
        <ele>17</ele>
        <time>2021-03-24T15:56:47Z</time>
      </trkpt>
      <trkpt lat="49.29689" lon="-0.46545">
        <ele>18</ele>
        <time>2021-03-24T15:56:56Z</time>
      </trkpt>
      <trkpt lat="49.2973" lon="-0.46524">
        <ele>18</ele>
        <time>2021-03-24T15:57:04Z</time>
      </trkpt>
      <trkpt lat="49.29783" lon="-0.46478">
        <ele>20</ele>
        <time>2021-03-24T15:57:15Z</time>
      </trkpt>
      <trkpt lat="49.29834" lon="-0.46464">
        <ele>17</ele>
        <time>2021-03-24T15:57:24Z</time>
      </trkpt>
      <trkpt lat="49.29892" lon="-0.4643">
        <ele>16</ele>
        <time>2021-03-24T15:57:35Z</time>
      </trkpt>
      <trkpt lat="49.29914" lon="-0.46407">
        <ele>15</ele>
        <time>2021-03-24T15:57:40Z</time>
      </trkpt>
      <trkpt lat="49.29926" lon="-0.46383">
        <ele>17</ele>
        <time>2021-03-24T15:57:43Z</time>
      </trkpt>
      <trkpt lat="49.29925" lon="-0.46353">
        <ele>20</ele>
        <time>2021-03-24T15:57:47Z</time>
      </trkpt>
      <trkpt lat="49.29939" lon="-0.46343">
        <ele>20</ele>
        <time>2021-03-24T15:57:49Z</time>
      </trkpt>
      <trkpt lat="49.2998" lon="-0.46365">
        <ele>16</ele>
        <time>2021-03-24T15:57:57Z</time>
      </trkpt>
      <trkpt lat="49.29999" lon="-0.46367">
        <ele>14</ele>
        <time>2021-03-24T15:58:01Z</time>
      </trkpt>
      <trkpt lat="49.30015" lon="-0.46361">
        <ele>14</ele>
        <time>2021-03-24T15:58:04Z</time>
      </trkpt>
      <trkpt lat="49.3009" lon="-0.4631">
        <ele>14</ele>
        <time>2021-03-24T15:58:18Z</time>
      </trkpt>
      <trkpt lat="49.30128" lon="-0.46296">
        <ele>13</ele>
        <time>2021-03-24T15:58:25Z</time>
      </trkpt>
      <trkpt lat="49.30138" lon="-0.46296">
        <ele>12</ele>
        <time>2021-03-24T15:58:27Z</time>
      </trkpt>
      <trkpt lat="49.3014" lon="-0.46289">
        <ele>13</ele>
        <time>2021-03-24T15:58:28Z</time>
      </trkpt>
      <trkpt lat="49.30144" lon="-0.46285">
        <ele>12</ele>
        <time>2021-03-24T15:58:29Z</time>
      </trkpt>
      <trkpt lat="49.30149" lon="-0.46287">
        <ele>12</ele>
        <time>2021-03-24T15:58:30Z</time>
      </trkpt>
      <trkpt lat="49.30151" lon="-0.46291">
        <ele>12</ele>
        <time>2021-03-24T15:58:30Z</time>
      </trkpt>
      <trkpt lat="49.30162" lon="-0.46287">
        <ele>11</ele>
        <time>2021-03-24T15:58:32Z</time>
      </trkpt>
      <trkpt lat="49.30217" lon="-0.46305">
        <ele>9</ele>
        <time>2021-03-24T15:58:42Z</time>
      </trkpt>
      <trkpt lat="49.30227" lon="-0.46315">
        <ele>9</ele>
        <time>2021-03-24T15:58:44Z</time>
      </trkpt>
      <trkpt lat="49.30261" lon="-0.46377">
        <ele>9</ele>
        <time>2021-03-24T15:58:54Z</time>
      </trkpt>
      <trkpt lat="49.30273" lon="-0.46395">
        <ele>9</ele>
        <time>2021-03-24T15:58:57Z</time>
      </trkpt>
      <trkpt lat="49.30363" lon="-0.46497">
        <ele>7</ele>
        <time>2021-03-24T15:59:17Z</time>
      </trkpt>
      <trkpt lat="49.30371" lon="-0.465">
        <ele>7</ele>
        <time>2021-03-24T15:59:18Z</time>
      </trkpt>
      <trkpt lat="49.30396" lon="-0.46502">
        <ele>7</ele>
        <time>2021-03-24T15:59:22Z</time>
      </trkpt>
      <trkpt lat="49.30441" lon="-0.46502">
        <ele>7</ele>
        <time>2021-03-24T15:59:30Z</time>
      </trkpt>
      <trkpt lat="49.30453" lon="-0.46497">
        <ele>7</ele>
        <time>2021-03-24T15:59:33Z</time>
      </trkpt>
      <trkpt lat="49.30469" lon="-0.46484">
        <ele>9</ele>
        <time>2021-03-24T15:59:36Z</time>
      </trkpt>
      <trkpt lat="49.30487" lon="-0.46482">
        <ele>9</ele>
        <time>2021-03-24T15:59:39Z</time>
      </trkpt>
      <trkpt lat="49.3057" lon="-0.465">
        <ele>13</ele>
        <time>2021-03-24T15:59:54Z</time>
      </trkpt>
      <trkpt lat="49.30634" lon="-0.465">
        <ele>14</ele>
        <time>2021-03-24T16:00:05Z</time>
      </trkpt>
      <trkpt lat="49.30683" lon="-0.46489">
        <ele>15</ele>
        <time>2021-03-24T16:00:14Z</time>
      </trkpt>
      <trkpt lat="49.30708" lon="-0.46463">
        <ele>16</ele>
        <time>2021-03-24T16:00:20Z</time>
      </trkpt>
      <trkpt lat="49.30738" lon="-0.46416">
        <ele>18</ele>
        <time>2021-03-24T16:00:27Z</time>
      </trkpt>
      <trkpt lat="49.30781" lon="-0.46338">
        <ele>18</ele>
        <time>2021-03-24T16:00:39Z</time>
      </trkpt>
      <trkpt lat="49.30804" lon="-0.46312">
        <ele>18</ele>
        <time>2021-03-24T16:00:44Z</time>
      </trkpt>
      <trkpt lat="49.30956" lon="-0.46258">
        <ele>21</ele>
        <time>2021-03-24T16:01:12Z</time>
      </trkpt>
      <trkpt lat="49.31034" lon="-0.46239">
        <ele>23</ele>
        <time>2021-03-24T16:01:26Z</time>
      </trkpt>
      <trkpt lat="49.31224" lon="-0.46217">
        <ele>26</ele>
        <time>2021-03-24T16:02:00Z</time>
      </trkpt>
      <trkpt lat="49.31327" lon="-0.46209">
        <ele>26</ele>
        <time>2021-03-24T16:02:18Z</time>
      </trkpt>
      <trkpt lat="49.31427" lon="-0.46146">
        <ele>29</ele>
        <time>2021-03-24T16:02:37Z</time>
      </trkpt>
      <trkpt lat="49.31448" lon="-0.4614">
        <ele>29</ele>
        <time>2021-03-24T16:02:41Z</time>
      </trkpt>
      <trkpt lat="49.31516" lon="-0.46139">
        <ele>28</ele>
        <time>2021-03-24T16:02:53Z</time>
      </trkpt>
      <trkpt lat="49.31545" lon="-0.46119">
        <ele>29</ele>
        <time>2021-03-24T16:02:59Z</time>
      </trkpt>
      <trkpt lat="49.31571" lon="-0.46091">
        <ele>30</ele>
        <time>2021-03-24T16:03:05Z</time>
      </trkpt>
      <trkpt lat="49.31605" lon="-0.46044">
        <ele>30</ele>
        <time>2021-03-24T16:03:13Z</time>
      </trkpt>
      <trkpt lat="49.31637" lon="-0.45991">
        <ele>30</ele>
        <time>2021-03-24T16:03:21Z</time>
      </trkpt>
      <trkpt lat="49.31698" lon="-0.45868">
        <ele>32</ele>
        <time>2021-03-24T16:03:39Z</time>
      </trkpt>
      <trkpt lat="49.31763" lon="-0.45771">
        <ele>32</ele>
        <time>2021-03-24T16:03:55Z</time>
      </trkpt>
      <trkpt lat="49.31798" lon="-0.45727">
        <ele>32</ele>
        <time>2021-03-24T16:04:03Z</time>
      </trkpt>
      <trkpt lat="49.31813" lon="-0.45714">
        <ele>31</ele>
        <time>2021-03-24T16:04:06Z</time>
      </trkpt>
      <trkpt lat="49.32134" lon="-0.45644">
        <ele>29</ele>
        <time>2021-03-24T16:05:04Z</time>
      </trkpt>
      <trkpt lat="49.32212" lon="-0.45623">
        <ele>29</ele>
        <time>2021-03-24T16:05:18Z</time>
      </trkpt>
      <trkpt lat="49.32219" lon="-0.4562">
        <ele>29</ele>
        <time>2021-03-24T16:05:19Z</time>
      </trkpt>
      <trkpt lat="49.32222" lon="-0.45612">
        <ele>29</ele>
        <time>2021-03-24T16:05:21Z</time>
      </trkpt>
      <trkpt lat="49.32225" lon="-0.45579">
        <ele>29</ele>
        <time>2021-03-24T16:05:24Z</time>
      </trkpt>
      <trkpt lat="49.32219" lon="-0.45576">
        <ele>29</ele>
        <time>2021-03-24T16:05:25Z</time>
      </trkpt>
      <trkpt lat="49.32214" lon="-0.45571">
        <ele>29</ele>
        <time>2021-03-24T16:05:27Z</time>
      </trkpt>
      <trkpt lat="49.3221" lon="-0.45563">
        <ele>29</ele>
        <time>2021-03-24T16:05:28Z</time>
      </trkpt>
      <trkpt lat="49.32208" lon="-0.45553">
        <ele>29</ele>
        <time>2021-03-24T16:05:29Z</time>
      </trkpt>
      <trkpt lat="49.32208" lon="-0.45544">
        <ele>29</ele>
        <time>2021-03-24T16:05:30Z</time>
      </trkpt>
      <trkpt lat="49.32214" lon="-0.45528">
        <ele>29</ele>
        <time>2021-03-24T16:05:32Z</time>
      </trkpt>
      <trkpt lat="49.32224" lon="-0.45521">
        <ele>29</ele>
        <time>2021-03-24T16:05:34Z</time>
      </trkpt>
      <trkpt lat="49.32234" lon="-0.45523">
        <ele>29</ele>
        <time>2021-03-24T16:05:36Z</time>
      </trkpt>
      <trkpt lat="49.32242" lon="-0.45493">
        <ele>29</ele>
        <time>2021-03-24T16:05:40Z</time>
      </trkpt>
      <trkpt lat="49.32256" lon="-0.45412">
        <ele>28</ele>
        <time>2021-03-24T16:05:49Z</time>
      </trkpt>
      <trkpt lat="49.32263" lon="-0.45391">
        <ele>28</ele>
        <time>2021-03-24T16:05:52Z</time>
      </trkpt>
      <trkpt lat="49.32272" lon="-0.45369">
        <ele>27</ele>
        <time>2021-03-24T16:05:55Z</time>
      </trkpt>
      <trkpt lat="49.32284" lon="-0.45347">
        <ele>27</ele>
        <time>2021-03-24T16:05:58Z</time>
      </trkpt>
      <trkpt lat="49.32286" lon="-0.45334">
        <ele>27</ele>
        <time>2021-03-24T16:06:00Z</time>
      </trkpt>
      <trkpt lat="49.32283" lon="-0.45333">
        <ele>27</ele>
        <time>2021-03-24T16:06:01Z</time>
      </trkpt>
      <trkpt lat="49.32278" lon="-0.45325">
        <ele>27</ele>
        <time>2021-03-24T16:06:02Z</time>
      </trkpt>
      <trkpt lat="49.32276" lon="-0.45315">
        <ele>27</ele>
        <time>2021-03-24T16:06:03Z</time>
      </trkpt>
      <trkpt lat="49.3228" lon="-0.45302">
        <ele>27</ele>
        <time>2021-03-24T16:06:05Z</time>
      </trkpt>
      <trkpt lat="49.32283" lon="-0.45298">
        <ele>27</ele>
        <time>2021-03-24T16:06:05Z</time>
      </trkpt>
      <trkpt lat="49.3229" lon="-0.45297">
        <ele>27</ele>
        <time>2021-03-24T16:06:07Z</time>
      </trkpt>
      <trkpt lat="49.32294" lon="-0.45287">
        <ele>27</ele>
        <time>2021-03-24T16:06:08Z</time>
      </trkpt>
      <trkpt lat="49.32311" lon="-0.45246">
        <ele>27</ele>
        <time>2021-03-24T16:06:14Z</time>
      </trkpt>
      <trkpt lat="49.32321" lon="-0.4522">
        <ele>27</ele>
        <time>2021-03-24T16:06:17Z</time>
      </trkpt>
      <trkpt lat="49.32353" lon="-0.45137">
        <ele>26</ele>
        <time>2021-03-24T16:06:28Z</time>
      </trkpt>
      <trkpt lat="49.32355" lon="-0.45132">
        <ele>26</ele>
        <time>2021-03-24T16:06:29Z</time>
      </trkpt>
      <trkpt lat="49.32377" lon="-0.45084">
        <ele>25</ele>
        <time>2021-03-24T16:06:36Z</time>
      </trkpt>
      <trkpt lat="49.32394" lon="-0.45046">
        <ele>25</ele>
        <time>2021-03-24T16:06:41Z</time>
      </trkpt>
      <trkpt lat="49.324" lon="-0.45033">
        <ele>25</ele>
        <time>2021-03-24T16:06:43Z</time>
      </trkpt>
      <trkpt lat="49.32416" lon="-0.44997">
        <ele>25</ele>
        <time>2021-03-24T16:06:48Z</time>
      </trkpt>
      <trkpt lat="49.32479" lon="-0.44867">
        <ele>22</ele>
        <time>2021-03-24T16:07:07Z</time>
      </trkpt>
      <trkpt lat="49.32507" lon="-0.44808">
        <ele>23</ele>
        <time>2021-03-24T16:07:15Z</time>
      </trkpt>
      <trkpt lat="49.32527" lon="-0.44758">
        <ele>23</ele>
        <time>2021-03-24T16:07:22Z</time>
      </trkpt>
      <trkpt lat="49.32537" lon="-0.4474">
        <ele>23</ele>
        <time>2021-03-24T16:07:25Z</time>
      </trkpt>
      <trkpt lat="49.32544" lon="-0.44734">
        <ele>23</ele>
        <time>2021-03-24T16:07:26Z</time>
      </trkpt>
      <trkpt lat="49.32552" lon="-0.44732">
        <ele>23</ele>
        <time>2021-03-24T16:07:28Z</time>
      </trkpt>
      <trkpt lat="49.32581" lon="-0.4473">
        <ele>22</ele>
        <time>2021-03-24T16:07:33Z</time>
      </trkpt>
      <trkpt lat="49.32598" lon="-0.44728">
        <ele>21</ele>
        <time>2021-03-24T16:07:36Z</time>
      </trkpt>
      <trkpt lat="49.32658" lon="-0.44724">
        <ele>20</ele>
        <time>2021-03-24T16:07:47Z</time>
      </trkpt>
      <trkpt lat="49.32677" lon="-0.44722">
        <ele>19</ele>
        <time>2021-03-24T16:07:50Z</time>
      </trkpt>
      <trkpt lat="49.32719" lon="-0.44723">
        <ele>18</ele>
        <time>2021-03-24T16:07:57Z</time>
      </trkpt>
      <trkpt lat="49.32731" lon="-0.44723">
        <ele>17</ele>
        <time>2021-03-24T16:08:00Z</time>
      </trkpt>
      <trkpt lat="49.32742" lon="-0.44724">
        <ele>17</ele>
        <time>2021-03-24T16:08:02Z</time>
      </trkpt>
      <trkpt lat="49.32887" lon="-0.44738">
        <ele>13</ele>
        <time>2021-03-24T16:08:27Z</time>
      </trkpt>
      <trkpt lat="49.32942" lon="-0.44741">
        <ele>11</ele>
        <time>2021-03-24T16:08:37Z</time>
      </trkpt>
      <trkpt lat="49.33008" lon="-0.44745">
        <ele>10</ele>
        <time>2021-03-24T16:08:49Z</time>
      </trkpt>
      <trkpt lat="49.33008" lon="-0.44739">
        <ele>10</ele>
        <time>2021-03-24T16:08:50Z</time>
      </trkpt>
      <trkpt lat="49.33013" lon="-0.44734">
        <ele>10</ele>
        <time>2021-03-24T16:08:51Z</time>
      </trkpt>
      <trkpt lat="49.33018" lon="-0.4472">
        <ele>9</ele>
        <time>2021-03-24T16:08:53Z</time>
      </trkpt>
      <trkpt lat="49.33015" lon="-0.44661">
        <ele>9</ele>
        <time>2021-03-24T16:08:59Z</time>
      </trkpt>
      <trkpt lat="49.33019" lon="-0.44657">
        <ele>9</ele>
        <time>2021-03-24T16:09:00Z</time>
      </trkpt>
      <trkpt lat="49.32946" lon="-0.43524">
        <ele>7</ele>
        <time>2021-03-24T16:11:12Z</time>
      </trkpt>
      <trkpt lat="49.32944" lon="-0.43459">
        <ele>7</ele>
        <time>2021-03-24T16:11:20Z</time>
      </trkpt>
      <trkpt lat="49.32946" lon="-0.43422">
        <ele>7</ele>
        <time>2021-03-24T16:11:24Z</time>
      </trkpt>
      <trkpt lat="49.32949" lon="-0.43404">
        <ele>7</ele>
        <time>2021-03-24T16:11:26Z</time>
      </trkpt>
      <trkpt lat="49.32957" lon="-0.43369">
        <ele>7</ele>
        <time>2021-03-24T16:11:31Z</time>
      </trkpt>
      <trkpt lat="49.32965" lon="-0.43341">
        <ele>7</ele>
        <time>2021-03-24T16:11:34Z</time>
      </trkpt>
      <trkpt lat="49.32976" lon="-0.43311">
        <ele>7</ele>
        <time>2021-03-24T16:11:38Z</time>
      </trkpt>
      <trkpt lat="49.33007" lon="-0.43261">
        <ele>8</ele>
        <time>2021-03-24T16:11:46Z</time>
      </trkpt>
      <trkpt lat="49.33035" lon="-0.43231">
        <ele>7</ele>
        <time>2021-03-24T16:11:52Z</time>
      </trkpt>
      <trkpt lat="49.33097" lon="-0.43182">
        <ele>6</ele>
        <time>2021-03-24T16:12:05Z</time>
      </trkpt>
      <trkpt lat="49.33129" lon="-0.43151">
        <ele>5</ele>
        <time>2021-03-24T16:12:11Z</time>
      </trkpt>
      <trkpt lat="49.33152" lon="-0.43117">
        <ele>5</ele>
        <time>2021-03-24T16:12:17Z</time>
      </trkpt>
      <trkpt lat="49.33178" lon="-0.43069">
        <ele>5</ele>
        <time>2021-03-24T16:12:24Z</time>
      </trkpt>
      <trkpt lat="49.33219" lon="-0.42935">
        <ele>4</ele>
        <time>2021-03-24T16:12:41Z</time>
      </trkpt>
      <trkpt lat="49.33234" lon="-0.4289">
        <ele>3</ele>
        <time>2021-03-24T16:12:47Z</time>
      </trkpt>
      <trkpt lat="49.33248" lon="-0.42857">
        <ele>2</ele>
        <time>2021-03-24T16:12:52Z</time>
      </trkpt>
      <trkpt lat="49.33272" lon="-0.42818">
        <ele>2</ele>
        <time>2021-03-24T16:12:58Z</time>
      </trkpt>
      <trkpt lat="49.33282" lon="-0.42803">
        <ele>2</ele>
        <time>2021-03-24T16:13:01Z</time>
      </trkpt>
      <trkpt lat="49.33371" lon="-0.42722">
        <ele>2</ele>
        <time>2021-03-24T16:13:19Z</time>
      </trkpt>
      <trkpt lat="49.3343" lon="-0.42664">
        <ele>2</ele>
        <time>2021-03-24T16:13:31Z</time>
      </trkpt>
      <trkpt lat="49.33448" lon="-0.42643">
        <ele>2</ele>
        <time>2021-03-24T16:13:35Z</time>
      </trkpt>
      <trkpt lat="49.33463" lon="-0.42623">
        <ele>2</ele>
        <time>2021-03-24T16:13:39Z</time>
      </trkpt>
      <trkpt lat="49.33468" lon="-0.42611">
        <ele>2</ele>
        <time>2021-03-24T16:13:41Z</time>
      </trkpt>
      <trkpt lat="49.33474" lon="-0.42623">
        <ele>2</ele>
        <time>2021-03-24T16:13:42Z</time>
      </trkpt>
      <trkpt lat="49.33468" lon="-0.42611">
        <ele>2</ele>
        <time>2021-03-24T16:13:44Z</time>
      </trkpt>
      <trkpt lat="49.33482" lon="-0.42573">
        <ele>2</ele>
        <time>2021-03-24T16:13:49Z</time>
      </trkpt>
      <trkpt lat="49.33489" lon="-0.4254">
        <ele>2</ele>
        <time>2021-03-24T16:13:53Z</time>
      </trkpt>
      <trkpt lat="49.33492" lon="-0.4251">
        <ele>2</ele>
        <time>2021-03-24T16:13:57Z</time>
      </trkpt>
      <trkpt lat="49.3349" lon="-0.42461">
        <ele>4</ele>
        <time>2021-03-24T16:14:02Z</time>
      </trkpt>
      <trkpt lat="49.33485" lon="-0.42457">
        <ele>4</ele>
        <time>2021-03-24T16:14:03Z</time>
      </trkpt>
      <trkpt lat="49.33482" lon="-0.42439">
        <ele>4</ele>
        <time>2021-03-24T16:14:06Z</time>
      </trkpt>
      <trkpt lat="49.3348" lon="-0.42407">
        <ele>5</ele>
        <time>2021-03-24T16:14:09Z</time>
      </trkpt>
      <trkpt lat="49.33475" lon="-0.42297">
        <ele>5</ele>
        <time>2021-03-24T16:14:22Z</time>
      </trkpt>
      <trkpt lat="49.33474" lon="-0.42273">
        <ele>5</ele>
        <time>2021-03-24T16:14:25Z</time>
      </trkpt>
      <trkpt lat="49.33473" lon="-0.42251">
        <ele>4</ele>
        <time>2021-03-24T16:14:27Z</time>
      </trkpt>
      <trkpt lat="49.33472" lon="-0.42208">
        <ele>4</ele>
        <time>2021-03-24T16:14:32Z</time>
      </trkpt>
      <trkpt lat="49.3347" lon="-0.42142">
        <ele>3</ele>
        <time>2021-03-24T16:14:40Z</time>
      </trkpt>
      <trkpt lat="49.3347" lon="-0.42126">
        <ele>3</ele>
        <time>2021-03-24T16:14:42Z</time>
      </trkpt>
      <trkpt lat="49.33468" lon="-0.42016">
        <ele>4</ele>
        <time>2021-03-24T16:14:55Z</time>
      </trkpt>
      <trkpt lat="49.33472" lon="-0.42014">
        <ele>4</ele>
        <time>2021-03-24T16:14:56Z</time>
      </trkpt>
      <trkpt lat="49.33472" lon="-0.42003">
        <ele>4</ele>
        <time>2021-03-24T16:14:57Z</time>
      </trkpt>
      <trkpt lat="49.33472" lon="-0.41954">
        <ele>4</ele>
        <time>2021-03-24T16:15:02Z</time>
      </trkpt>
      <trkpt lat="49.33471" lon="-0.41868">
        <ele>4</ele>
        <time>2021-03-24T16:15:12Z</time>
      </trkpt>
      <trkpt lat="49.33471" lon="-0.41858">
        <ele>4</ele>
        <time>2021-03-24T16:15:14Z</time>
      </trkpt>
      <trkpt lat="49.33471" lon="-0.41849">
        <ele>4</ele>
        <time>2021-03-24T16:15:15Z</time>
      </trkpt>
      <trkpt lat="49.33471" lon="-0.41808">
        <ele>4</ele>
        <time>2021-03-24T16:15:19Z</time>
      </trkpt>
      <trkpt lat="49.3347" lon="-0.41762">
        <ele>5</ele>
        <time>2021-03-24T16:15:25Z</time>
      </trkpt>
      <trkpt lat="49.3347" lon="-0.41737">
        <ele>5</ele>
        <time>2021-03-24T16:15:28Z</time>
      </trkpt>
      <trkpt lat="49.33471" lon="-0.41693">
        <ele>4</ele>
        <time>2021-03-24T16:15:33Z</time>
      </trkpt>
      <trkpt lat="49.3347" lon="-0.41582">
        <ele>3</ele>
        <time>2021-03-24T16:15:46Z</time>
      </trkpt>
      <trkpt lat="49.33462" lon="-0.41438">
        <ele>5</ele>
        <time>2021-03-24T16:16:02Z</time>
      </trkpt>
      <trkpt lat="49.33462" lon="-0.41421">
        <ele>5</ele>
        <time>2021-03-24T16:16:04Z</time>
      </trkpt>
      <trkpt lat="49.33453" lon="-0.41275">
        <ele>4</ele>
        <time>2021-03-24T16:16:21Z</time>
      </trkpt>
      <trkpt lat="49.33452" lon="-0.41259">
        <ele>4</ele>
        <time>2021-03-24T16:16:23Z</time>
      </trkpt>
      <trkpt lat="49.33448" lon="-0.41172">
        <ele>3</ele>
        <time>2021-03-24T16:16:33Z</time>
      </trkpt>
      <trkpt lat="49.33442" lon="-0.41085">
        <ele>2</ele>
        <time>2021-03-24T16:16:43Z</time>
      </trkpt>
      <trkpt lat="49.33441" lon="-0.41072">
        <ele>2</ele>
        <time>2021-03-24T16:16:45Z</time>
      </trkpt>
      <trkpt lat="49.33441" lon="-0.4107">
        <ele>2</ele>
        <time>2021-03-24T16:16:45Z</time>
      </trkpt>
      <trkpt lat="49.33437" lon="-0.41045">
        <ele>3</ele>
        <time>2021-03-24T16:16:48Z</time>
      </trkpt>
      <trkpt lat="49.33432" lon="-0.41013">
        <ele>3</ele>
        <time>2021-03-24T16:16:52Z</time>
      </trkpt>
      <trkpt lat="49.33423" lon="-0.40961">
        <ele>3</ele>
        <time>2021-03-24T16:16:58Z</time>
      </trkpt>
      <trkpt lat="49.33413" lon="-0.40923">
        <ele>3</ele>
        <time>2021-03-24T16:17:03Z</time>
      </trkpt>
      <trkpt lat="49.334" lon="-0.40877">
        <ele>4</ele>
        <time>2021-03-24T16:17:09Z</time>
      </trkpt>
      <trkpt lat="49.33389" lon="-0.40845">
        <ele>5</ele>
        <time>2021-03-24T16:17:13Z</time>
      </trkpt>
      <trkpt lat="49.33385" lon="-0.40835">
        <ele>5</ele>
        <time>2021-03-24T16:17:14Z</time>
      </trkpt>
      <trkpt lat="49.33376" lon="-0.4081">
        <ele>5</ele>
        <time>2021-03-24T16:17:18Z</time>
      </trkpt>
      <trkpt lat="49.33369" lon="-0.4079">
        <ele>6</ele>
        <time>2021-03-24T16:17:20Z</time>
      </trkpt>
      <trkpt lat="49.33345" lon="-0.40748">
        <ele>7</ele>
        <time>2021-03-24T16:17:27Z</time>
      </trkpt>
      <trkpt lat="49.33341" lon="-0.40742">
        <ele>7</ele>
        <time>2021-03-24T16:17:28Z</time>
      </trkpt>
      <trkpt lat="49.33335" lon="-0.40732">
        <ele>7</ele>
        <time>2021-03-24T16:17:29Z</time>
      </trkpt>
      <trkpt lat="49.33337" lon="-0.40713">
        <ele>7</ele>
        <time>2021-03-24T16:17:32Z</time>
      </trkpt>
      <trkpt lat="49.33346" lon="-0.40688">
        <ele>7</ele>
        <time>2021-03-24T16:17:35Z</time>
      </trkpt>
      <trkpt lat="49.33341" lon="-0.40635">
        <ele>6</ele>
        <time>2021-03-24T16:17:41Z</time>
      </trkpt>
      <trkpt lat="49.33335" lon="-0.40508">
        <ele>6</ele>
        <time>2021-03-24T16:17:56Z</time>
      </trkpt>
      <trkpt lat="49.33322" lon="-0.40374">
        <ele>8</ele>
        <time>2021-03-24T16:18:12Z</time>
      </trkpt>
      <trkpt lat="49.33308" lon="-0.4015">
        <ele>7</ele>
        <time>2021-03-24T16:18:38Z</time>
      </trkpt>
      <trkpt lat="49.33277" lon="-0.3984">
        <ele>7</ele>
        <time>2021-03-24T16:19:14Z</time>
      </trkpt>
      <trkpt lat="49.33271" lon="-0.39755">
        <ele>8</ele>
        <time>2021-03-24T16:19:24Z</time>
      </trkpt>
      <trkpt lat="49.33254" lon="-0.3961">
        <ele>9</ele>
        <time>2021-03-24T16:19:41Z</time>
      </trkpt>
      <trkpt lat="49.33254" lon="-0.39587">
        <ele>9</ele>
        <time>2021-03-24T16:19:44Z</time>
      </trkpt>
      <trkpt lat="49.3325" lon="-0.39577">
        <ele>9</ele>
        <time>2021-03-24T16:19:45Z</time>
      </trkpt>
      <trkpt lat="49.33236" lon="-0.3947">
        <ele>8</ele>
        <time>2021-03-24T16:19:58Z</time>
      </trkpt>
      <trkpt lat="49.33228" lon="-0.39425">
        <ele>7</ele>
        <time>2021-03-24T16:20:03Z</time>
      </trkpt>
      <trkpt lat="49.3322" lon="-0.39414">
        <ele>7</ele>
        <time>2021-03-24T16:20:05Z</time>
      </trkpt>
      <trkpt lat="49.33188" lon="-0.39326">
        <ele>6</ele>
        <time>2021-03-24T16:20:17Z</time>
      </trkpt>
      <trkpt lat="49.3313" lon="-0.39201">
        <ele>7</ele>
        <time>2021-03-24T16:20:35Z</time>
      </trkpt>
      <trkpt lat="49.33113" lon="-0.39183">
        <ele>8</ele>
        <time>2021-03-24T16:20:38Z</time>
      </trkpt>
      <trkpt lat="49.33111" lon="-0.39179">
        <ele>8</ele>
        <time>2021-03-24T16:20:39Z</time>
      </trkpt>
      <trkpt lat="49.33023" lon="-0.39221">
        <ele>10</ele>
        <time>2021-03-24T16:20:55Z</time>
      </trkpt>
      <trkpt lat="49.33007" lon="-0.39219">
        <ele>10</ele>
        <time>2021-03-24T16:20:58Z</time>
      </trkpt>
      <trkpt lat="49.32991" lon="-0.39225">
        <ele>10</ele>
        <time>2021-03-24T16:21:01Z</time>
      </trkpt>
      <trkpt lat="49.32959" lon="-0.39244">
        <ele>9</ele>
        <time>2021-03-24T16:21:07Z</time>
      </trkpt>
      <trkpt lat="49.32863" lon="-0.38995">
        <ele>10</ele>
        <time>2021-03-24T16:21:41Z</time>
      </trkpt>
      <trkpt lat="49.3284" lon="-0.3895">
        <ele>10</ele>
        <time>2021-03-24T16:21:47Z</time>
      </trkpt>
      <trkpt lat="49.32977" lon="-0.38896">
        <ele>10</ele>
        <time>2021-03-24T16:22:12Z</time>
      </trkpt>
      <trkpt lat="49.33019" lon="-0.38872">
        <ele>8</ele>
        <time>2021-03-24T16:22:20Z</time>
      </trkpt>
      <trkpt lat="49.33024" lon="-0.38865">
        <ele>8</ele>
        <time>2021-03-24T16:22:22Z</time>
      </trkpt>
      <trkpt lat="49.33024" lon="-0.38859">
        <ele>8</ele>
        <time>2021-03-24T16:22:22Z</time>
      </trkpt>
      <trkpt lat="49.3302" lon="-0.38837">
        <ele>8</ele>
        <time>2021-03-24T16:22:25Z</time>
      </trkpt>
      <trkpt lat="49.32998" lon="-0.38762">
        <ele>8</ele>
        <time>2021-03-24T16:22:34Z</time>
      </trkpt>
      <trkpt lat="49.32945" lon="-0.38552">
        <ele>7</ele>
        <time>2021-03-24T16:23:01Z</time>
      </trkpt>
      <trkpt lat="49.32805" lon="-0.37977">
        <ele>7</ele>
        <time>2021-03-24T16:24:12Z</time>
      </trkpt>
      <trkpt lat="49.3279" lon="-0.37905">
        <ele>7</ele>
        <time>2021-03-24T16:24:21Z</time>
      </trkpt>
      <trkpt lat="49.32735" lon="-0.37678">
        <ele>7</ele>
        <time>2021-03-24T16:24:49Z</time>
      </trkpt>
      <trkpt lat="49.32715" lon="-0.37611">
        <ele>6</ele>
        <time>2021-03-24T16:24:57Z</time>
      </trkpt>
      <trkpt lat="49.327" lon="-0.3758">
        <ele>6</ele>
        <time>2021-03-24T16:25:02Z</time>
      </trkpt>
      <trkpt lat="49.32611" lon="-0.37419">
        <ele>8</ele>
        <time>2021-03-24T16:25:26Z</time>
      </trkpt>
      <trkpt lat="49.32601" lon="-0.37397">
        <ele>7</ele>
        <time>2021-03-24T16:25:29Z</time>
      </trkpt>
      <trkpt lat="49.32596" lon="-0.37391">
        <ele>7</ele>
        <time>2021-03-24T16:25:30Z</time>
      </trkpt>
      <trkpt lat="49.32587" lon="-0.37357">
        <ele>7</ele>
        <time>2021-03-24T16:25:35Z</time>
      </trkpt>
      <trkpt lat="49.32583" lon="-0.37336">
        <ele>7</ele>
        <time>2021-03-24T16:25:37Z</time>
      </trkpt>
      <trkpt lat="49.32559" lon="-0.37135">
        <ele>7</ele>
        <time>2021-03-24T16:26:01Z</time>
      </trkpt>
      <trkpt lat="49.32547" lon="-0.37096">
        <ele>7</ele>
        <time>2021-03-24T16:26:06Z</time>
      </trkpt>
      <trkpt lat="49.32521" lon="-0.3697">
        <ele>6</ele>
        <time>2021-03-24T16:26:21Z</time>
      </trkpt>
      <trkpt lat="49.32487" lon="-0.36826">
        <ele>6</ele>
        <time>2021-03-24T16:26:39Z</time>
      </trkpt>
      <trkpt lat="49.32463" lon="-0.36749">
        <ele>6</ele>
        <time>2021-03-24T16:26:49Z</time>
      </trkpt>
      <trkpt lat="49.32419" lon="-0.36588">
        <ele>12</ele>
        <time>2021-03-24T16:27:09Z</time>
      </trkpt>
      <trkpt lat="49.32391" lon="-0.36492">
        <ele>9</ele>
        <time>2021-03-24T16:27:21Z</time>
      </trkpt>
      <trkpt lat="49.32356" lon="-0.3633">
        <ele>7</ele>
        <time>2021-03-24T16:27:41Z</time>
      </trkpt>
      <trkpt lat="49.32333" lon="-0.36246">
        <ele>7</ele>
        <time>2021-03-24T16:27:52Z</time>
      </trkpt>
      <trkpt lat="49.32307" lon="-0.36176">
        <ele>6</ele>
        <time>2021-03-24T16:28:01Z</time>
      </trkpt>
      <trkpt lat="49.32188" lon="-0.3593">
        <ele>5</ele>
        <time>2021-03-24T16:28:36Z</time>
      </trkpt>
      <trkpt lat="49.3205" lon="-0.35599">
        <ele>8</ele>
        <time>2021-03-24T16:29:22Z</time>
      </trkpt>
      <trkpt lat="49.31961" lon="-0.35373">
        <ele>7</ele>
        <time>2021-03-24T16:29:53Z</time>
      </trkpt>
      <trkpt lat="49.31947" lon="-0.3535">
        <ele>7</ele>
        <time>2021-03-24T16:29:56Z</time>
      </trkpt>
      <trkpt lat="49.31828" lon="-0.35068">
        <ele>10</ele>
        <time>2021-03-24T16:30:35Z</time>
      </trkpt>
      <trkpt lat="49.31813" lon="-0.35043">
        <ele>9</ele>
        <time>2021-03-24T16:30:39Z</time>
      </trkpt>
      <trkpt lat="49.31756" lon="-0.34992">
        <ele>10</ele>
        <time>2021-03-24T16:30:51Z</time>
      </trkpt>
      <trkpt lat="49.31724" lon="-0.34959">
        <ele>10</ele>
        <time>2021-03-24T16:30:58Z</time>
      </trkpt>
      <trkpt lat="49.31712" lon="-0.34952">
        <ele>10</ele>
        <time>2021-03-24T16:31:00Z</time>
      </trkpt>
      <trkpt lat="49.31701" lon="-0.34952">
        <ele>10</ele>
        <time>2021-03-24T16:31:02Z</time>
      </trkpt>
      <trkpt lat="49.31697" lon="-0.34965">
        <ele>10</ele>
        <time>2021-03-24T16:31:04Z</time>
      </trkpt>
      <trkpt lat="49.31689" lon="-0.34966">
        <ele>10</ele>
        <time>2021-03-24T16:31:05Z</time>
      </trkpt>
      <trkpt lat="49.31685" lon="-0.34963">
        <ele>10</ele>
        <time>2021-03-24T16:31:06Z</time>
      </trkpt>
      <trkpt lat="49.31683" lon="-0.34958">
        <ele>10</ele>
        <time>2021-03-24T16:31:07Z</time>
      </trkpt>
      <trkpt lat="49.31682" lon="-0.34952">
        <ele>10</ele>
        <time>2021-03-24T16:31:07Z</time>
      </trkpt>
      <trkpt lat="49.31686" lon="-0.34942">
        <ele>10</ele>
        <time>2021-03-24T16:31:09Z</time>
      </trkpt>
      <trkpt lat="49.31688" lon="-0.3494">
        <ele>10</ele>
        <time>2021-03-24T16:31:09Z</time>
      </trkpt>
      <trkpt lat="49.31686" lon="-0.34919">
        <ele>10</ele>
        <time>2021-03-24T16:31:12Z</time>
      </trkpt>
      <trkpt lat="49.31508" lon="-0.34528">
        <ele>11</ele>
        <time>2021-03-24T16:32:07Z</time>
      </trkpt>
      <trkpt lat="49.31404" lon="-0.34292">
        <ele>8</ele>
        <time>2021-03-24T16:32:40Z</time>
      </trkpt>
      <trkpt lat="49.30901" lon="-0.3307">
        <ele>10</ele>
        <time>2021-03-24T16:35:28Z</time>
      </trkpt>
      <trkpt lat="49.30855" lon="-0.32971">
        <ele>10</ele>
        <time>2021-03-24T16:35:42Z</time>
      </trkpt>
      <trkpt lat="49.30636" lon="-0.32532">
        <ele>7</ele>
        <time>2021-03-24T16:36:46Z</time>
      </trkpt>
      <trkpt lat="49.30626" lon="-0.32517">
        <ele>7</ele>
        <time>2021-03-24T16:36:48Z</time>
      </trkpt>
      <trkpt lat="49.30602" lon="-0.32488">
        <ele>7</ele>
        <time>2021-03-24T16:36:54Z</time>
      </trkpt>
      <trkpt lat="49.30585" lon="-0.32457">
        <ele>7</ele>
        <time>2021-03-24T16:36:58Z</time>
      </trkpt>
      <trkpt lat="49.3057" lon="-0.32426">
        <ele>7</ele>
        <time>2021-03-24T16:37:03Z</time>
      </trkpt>
      <trkpt lat="49.30565" lon="-0.32425">
        <ele>7</ele>
        <time>2021-03-24T16:37:04Z</time>
      </trkpt>
      <trkpt lat="49.3056" lon="-0.32419">
        <ele>8</ele>
        <time>2021-03-24T16:37:05Z</time>
      </trkpt>
      <trkpt lat="49.30557" lon="-0.32412">
        <ele>8</ele>
        <time>2021-03-24T16:37:06Z</time>
      </trkpt>
      <trkpt lat="49.30556" lon="-0.32404">
        <ele>8</ele>
        <time>2021-03-24T16:37:07Z</time>
      </trkpt>
      <trkpt lat="49.30558" lon="-0.32393">
        <ele>8</ele>
        <time>2021-03-24T16:37:08Z</time>
      </trkpt>
      <trkpt lat="49.30556" lon="-0.32373">
        <ele>8</ele>
        <time>2021-03-24T16:37:11Z</time>
      </trkpt>
      <trkpt lat="49.30525" lon="-0.32319">
        <ele>9</ele>
        <time>2021-03-24T16:37:19Z</time>
      </trkpt>
      <trkpt lat="49.30457" lon="-0.3222">
        <ele>10</ele>
        <time>2021-03-24T16:37:36Z</time>
      </trkpt>
      <trkpt lat="49.3046" lon="-0.32215">
        <ele>10</ele>
        <time>2021-03-24T16:37:36Z</time>
      </trkpt>
      <trkpt lat="49.3034" lon="-0.32044">
        <ele>9</ele>
        <time>2021-03-24T16:38:06Z</time>
      </trkpt>
      <trkpt lat="49.3033" lon="-0.32025">
        <ele>9</ele>
        <time>2021-03-24T16:38:08Z</time>
      </trkpt>
      <trkpt lat="49.30324" lon="-0.32008">
        <ele>9</ele>
        <time>2021-03-24T16:38:11Z</time>
      </trkpt>
      <trkpt lat="49.30296" lon="-0.31821">
        <ele>8</ele>
        <time>2021-03-24T16:38:33Z</time>
      </trkpt>
      <trkpt lat="49.30365" lon="-0.31712">
        <ele>5</ele>
        <time>2021-03-24T16:38:50Z</time>
      </trkpt>
      <trkpt lat="49.30352" lon="-0.31678">
        <ele>6</ele>
        <time>2021-03-24T16:38:55Z</time>
      </trkpt>
      <trkpt lat="49.3034" lon="-0.31642">
        <ele>7</ele>
        <time>2021-03-24T16:39:00Z</time>
      </trkpt>
      <trkpt lat="49.30318" lon="-0.31603">
        <ele>7</ele>
        <time>2021-03-24T16:39:06Z</time>
      </trkpt>
      <trkpt lat="49.30298" lon="-0.31602">
        <ele>8</ele>
        <time>2021-03-24T16:39:09Z</time>
      </trkpt>
      <trkpt lat="49.30286" lon="-0.31681">
        <ele>8</ele>
        <time>2021-03-24T16:39:19Z</time>
      </trkpt>
      <trkpt lat="49.30285" lon="-0.31709">
        <ele>8</ele>
        <time>2021-03-24T16:39:22Z</time>
      </trkpt>
      <trkpt lat="49.30288" lon="-0.31753">
        <ele>8</ele>
        <time>2021-03-24T16:39:27Z</time>
      </trkpt>
      <trkpt lat="49.30296" lon="-0.31821">
        <ele>8</ele>
        <time>2021-03-24T16:39:35Z</time>
      </trkpt>
      <trkpt lat="49.30365" lon="-0.31712">
        <ele>5</ele>
        <time>2021-03-24T16:39:53Z</time>
      </trkpt>
      <trkpt lat="49.30352" lon="-0.31678">
        <ele>6</ele>
        <time>2021-03-24T16:39:57Z</time>
      </trkpt>
      <trkpt lat="49.3034" lon="-0.31642">
        <ele>7</ele>
        <time>2021-03-24T16:40:02Z</time>
      </trkpt>
      <trkpt lat="49.30318" lon="-0.31603">
        <ele>7</ele>
        <time>2021-03-24T16:40:08Z</time>
      </trkpt>
      <trkpt lat="49.30324" lon="-0.31586">
        <ele>7</ele>
        <time>2021-03-24T16:40:10Z</time>
      </trkpt>
      <trkpt lat="49.30324" lon="-0.31577">
        <ele>7</ele>
        <time>2021-03-24T16:40:11Z</time>
      </trkpt>
      <trkpt lat="49.303" lon="-0.31522">
        <ele>7</ele>
        <time>2021-03-24T16:40:19Z</time>
      </trkpt>
      <trkpt lat="49.30271" lon="-0.31459">
        <ele>7</ele>
        <time>2021-03-24T16:40:28Z</time>
      </trkpt>
      <trkpt lat="49.30229" lon="-0.31511">
        <ele>8</ele>
        <time>2021-03-24T16:40:38Z</time>
      </trkpt>
      <trkpt lat="49.3013" lon="-0.31353">
        <ele>8</ele>
        <time>2021-03-24T16:41:03Z</time>
      </trkpt>
      <trkpt lat="49.30112" lon="-0.31324">
        <ele>8</ele>
        <time>2021-03-24T16:41:08Z</time>
      </trkpt>
      <trkpt lat="49.30034" lon="-0.3105">
        <ele>8</ele>
        <time>2021-03-24T16:41:42Z</time>
      </trkpt>
      <trkpt lat="49.29761" lon="-0.30322">
        <ele>6</ele>
        <time>2021-03-24T16:43:20Z</time>
      </trkpt>
      <trkpt lat="49.29756" lon="-0.30317">
        <ele>6</ele>
        <time>2021-03-24T16:43:21Z</time>
      </trkpt>
      <trkpt lat="49.29751" lon="-0.30318">
        <ele>6</ele>
        <time>2021-03-24T16:43:22Z</time>
      </trkpt>
      <trkpt lat="49.29741" lon="-0.30268">
        <ele>6</ele>
        <time>2021-03-24T16:43:28Z</time>
      </trkpt>
      <trkpt lat="49.29662" lon="-0.30008">
        <ele>6</ele>
        <time>2021-03-24T16:44:01Z</time>
      </trkpt>
      <trkpt lat="49.29648" lon="-0.29969">
        <ele>6</ele>
        <time>2021-03-24T16:44:06Z</time>
      </trkpt>
      <trkpt lat="49.29631" lon="-0.29971">
        <ele>5</ele>
        <time>2021-03-24T16:44:09Z</time>
      </trkpt>
      <trkpt lat="49.29624" lon="-0.29916">
        <ele>6</ele>
        <time>2021-03-24T16:44:16Z</time>
      </trkpt>
      <trkpt lat="49.29614" lon="-0.29867">
        <ele>6</ele>
        <time>2021-03-24T16:44:22Z</time>
      </trkpt>
      <trkpt lat="49.29608" lon="-0.29835">
        <ele>6</ele>
        <time>2021-03-24T16:44:26Z</time>
      </trkpt>
      <trkpt lat="49.29599" lon="-0.29803">
        <ele>6</ele>
        <time>2021-03-24T16:44:30Z</time>
      </trkpt>
      <trkpt lat="49.29565" lon="-0.297">
        <ele>6</ele>
        <time>2021-03-24T16:44:43Z</time>
      </trkpt>
      <trkpt lat="49.29504" lon="-0.29504">
        <ele>6</ele>
        <time>2021-03-24T16:45:08Z</time>
      </trkpt>
      <trkpt lat="49.2948" lon="-0.29424">
        <ele>6</ele>
        <time>2021-03-24T16:45:18Z</time>
      </trkpt>
      <trkpt lat="49.29467" lon="-0.29387">
        <ele>5</ele>
        <time>2021-03-24T16:45:23Z</time>
      </trkpt>
      <trkpt lat="49.29432" lon="-0.29266">
        <ele>5</ele>
        <time>2021-03-24T16:45:39Z</time>
      </trkpt>
      <trkpt lat="49.29393" lon="-0.29146">
        <ele>6</ele>
        <time>2021-03-24T16:45:54Z</time>
      </trkpt>
      <trkpt lat="49.29253" lon="-0.28692">
        <ele>6</ele>
        <time>2021-03-24T16:46:52Z</time>
      </trkpt>
      <trkpt lat="49.29358" lon="-0.28625">
        <ele>5</ele>
        <time>2021-03-24T16:47:13Z</time>
      </trkpt>
      <trkpt lat="49.29306" lon="-0.28407">
        <ele>4</ele>
        <time>2021-03-24T16:47:40Z</time>
      </trkpt>
      <trkpt lat="49.29245" lon="-0.28131">
        <ele>6</ele>
        <time>2021-03-24T16:48:13Z</time>
      </trkpt>
      <trkpt lat="49.2908" lon="-0.27071">
        <ele>7</ele>
        <time>2021-03-24T16:50:20Z</time>
      </trkpt>
      <trkpt lat="49.2902" lon="-0.26647">
        <ele>7</ele>
        <time>2021-03-24T16:51:10Z</time>
      </trkpt>
      <trkpt lat="49.28983" lon="-0.26434">
        <ele>7</ele>
        <time>2021-03-24T16:51:36Z</time>
      </trkpt>
      <trkpt lat="49.28915" lon="-0.26134">
        <ele>6</ele>
        <time>2021-03-24T16:52:13Z</time>
      </trkpt>
      <trkpt lat="49.28914" lon="-0.26113">
        <ele>7</ele>
        <time>2021-03-24T16:52:15Z</time>
      </trkpt>
      <trkpt lat="49.2891" lon="-0.26107">
        <ele>7</ele>
        <time>2021-03-24T16:52:16Z</time>
      </trkpt>
      <trkpt lat="49.28909" lon="-0.26099">
        <ele>7</ele>
        <time>2021-03-24T16:52:17Z</time>
      </trkpt>
      <trkpt lat="49.28903" lon="-0.26074">
        <ele>7</ele>
        <time>2021-03-24T16:52:20Z</time>
      </trkpt>
      <trkpt lat="49.28884" lon="-0.25985">
        <ele>7</ele>
        <time>2021-03-24T16:52:31Z</time>
      </trkpt>
      <trkpt lat="49.28876" lon="-0.25964">
        <ele>7</ele>
        <time>2021-03-24T16:52:34Z</time>
      </trkpt>
      <trkpt lat="49.28804" lon="-0.25646">
        <ele>6</ele>
        <time>2021-03-24T16:53:13Z</time>
      </trkpt>
      <trkpt lat="49.28804" lon="-0.2562">
        <ele>6</ele>
        <time>2021-03-24T16:53:16Z</time>
      </trkpt>
      <trkpt lat="49.288" lon="-0.25609">
        <ele>6</ele>
        <time>2021-03-24T16:53:17Z</time>
      </trkpt>
      <trkpt lat="49.28801" lon="-0.25599">
        <ele>6</ele>
        <time>2021-03-24T16:53:19Z</time>
      </trkpt>
      <trkpt lat="49.28803" lon="-0.25595">
        <ele>6</ele>
        <time>2021-03-24T16:53:19Z</time>
      </trkpt>
      <trkpt lat="49.28794" lon="-0.2559">
        <ele>6</ele>
        <time>2021-03-24T16:53:21Z</time>
      </trkpt>
      <trkpt lat="49.28741" lon="-0.25342">
        <ele>4</ele>
        <time>2021-03-24T16:53:51Z</time>
      </trkpt>
      <trkpt lat="49.28704" lon="-0.25178">
        <ele>5</ele>
        <time>2021-03-24T16:54:11Z</time>
      </trkpt>
      <trkpt lat="49.28692" lon="-0.25117">
        <ele>5</ele>
        <time>2021-03-24T16:54:19Z</time>
      </trkpt>
      <trkpt lat="49.28675" lon="-0.25049">
        <ele>5</ele>
        <time>2021-03-24T16:54:27Z</time>
      </trkpt>
      <trkpt lat="49.28673" lon="-0.25034">
        <ele>5</ele>
        <time>2021-03-24T16:54:29Z</time>
      </trkpt>
      <trkpt lat="49.28673" lon="-0.2499">
        <ele>5</ele>
        <time>2021-03-24T16:54:34Z</time>
      </trkpt>
      <trkpt lat="49.28668" lon="-0.24967">
        <ele>5</ele>
        <time>2021-03-24T16:54:37Z</time>
      </trkpt>
      <trkpt lat="49.2864" lon="-0.2498">
        <ele>4</ele>
        <time>2021-03-24T16:54:42Z</time>
      </trkpt>
      <trkpt lat="49.28635" lon="-0.24982">
        <ele>4</ele>
        <time>2021-03-24T16:54:43Z</time>
      </trkpt>
      <trkpt lat="49.28631" lon="-0.24984">
        <ele>4</ele>
        <time>2021-03-24T16:54:44Z</time>
      </trkpt>
      <trkpt lat="49.28588" lon="-0.25003">
        <ele>4</ele>
        <time>2021-03-24T16:54:52Z</time>
      </trkpt>
      <trkpt lat="49.2853" lon="-0.25018">
        <ele>5</ele>
        <time>2021-03-24T16:55:02Z</time>
      </trkpt>
      <trkpt lat="49.28518" lon="-0.25022">
        <ele>5</ele>
        <time>2021-03-24T16:55:04Z</time>
      </trkpt>
      <trkpt lat="49.28491" lon="-0.25028">
        <ele>6</ele>
        <time>2021-03-24T16:55:09Z</time>
      </trkpt>
      <trkpt lat="49.28395" lon="-0.25051">
        <ele>6</ele>
        <time>2021-03-24T16:55:26Z</time>
      </trkpt>
      <trkpt lat="49.28381" lon="-0.25054">
        <ele>6</ele>
        <time>2021-03-24T16:55:29Z</time>
      </trkpt>
      <trkpt lat="49.28344" lon="-0.25062">
        <ele>7</ele>
        <time>2021-03-24T16:55:36Z</time>
      </trkpt>
      <trkpt lat="49.28339" lon="-0.25063">
        <ele>7</ele>
        <time>2021-03-24T16:55:37Z</time>
      </trkpt>
      <trkpt lat="49.28302" lon="-0.2507">
        <ele>7</ele>
        <time>2021-03-24T16:55:43Z</time>
      </trkpt>
      <trkpt lat="49.28278" lon="-0.25067">
        <ele>8</ele>
        <time>2021-03-24T16:55:47Z</time>
      </trkpt>
      <trkpt lat="49.28276" lon="-0.25065">
        <ele>8</ele>
        <time>2021-03-24T16:55:48Z</time>
      </trkpt>
      <trkpt lat="49.28273" lon="-0.25063">
        <ele>8</ele>
        <time>2021-03-24T16:55:48Z</time>
      </trkpt>
      <trkpt lat="49.28267" lon="-0.25055">
        <ele>8</ele>
        <time>2021-03-24T16:55:50Z</time>
      </trkpt>
      <trkpt lat="49.28262" lon="-0.25045">
        <ele>7</ele>
        <time>2021-03-24T16:55:51Z</time>
      </trkpt>
      <trkpt lat="49.28247" lon="-0.25004">
        <ele>7</ele>
        <time>2021-03-24T16:55:57Z</time>
      </trkpt>
      <trkpt lat="49.28243" lon="-0.24992">
        <ele>7</ele>
        <time>2021-03-24T16:55:58Z</time>
      </trkpt>
      <trkpt lat="49.28238" lon="-0.24982">
        <ele>6</ele>
        <time>2021-03-24T16:56:00Z</time>
      </trkpt>
      <trkpt lat="49.28232" lon="-0.24975">
        <ele>6</ele>
        <time>2021-03-24T16:56:01Z</time>
      </trkpt>
      <trkpt lat="49.28226" lon="-0.24971">
        <ele>5</ele>
        <time>2021-03-24T16:56:02Z</time>
      </trkpt>
      <trkpt lat="49.28231" lon="-0.24954">
        <ele>4</ele>
        <time>2021-03-24T16:56:04Z</time>
      </trkpt>
      <trkpt lat="49.28233" lon="-0.24947">
        <ele>4</ele>
        <time>2021-03-24T16:56:05Z</time>
      </trkpt>
      <trkpt lat="49.28228" lon="-0.24929">
        <ele>3</ele>
        <time>2021-03-24T16:56:08Z</time>
      </trkpt>
      <trkpt lat="49.28116" lon="-0.24975">
        <ele>4</ele>
        <time>2021-03-24T16:56:28Z</time>
      </trkpt>
      <trkpt lat="49.28087" lon="-0.24961">
        <ele>3</ele>
        <time>2021-03-24T16:56:34Z</time>
      </trkpt>
      <trkpt lat="49.28082" lon="-0.2496">
        <ele>3</ele>
        <time>2021-03-24T16:56:35Z</time>
      </trkpt>
      <trkpt lat="49.28046" lon="-0.2497">
        <ele>3</ele>
        <time>2021-03-24T16:56:41Z</time>
      </trkpt>
      <trkpt lat="49.2802" lon="-0.24965">
        <ele>3</ele>
        <time>2021-03-24T16:56:46Z</time>
      </trkpt>
      <trkpt lat="49.2784" lon="-0.25013">
        <ele>3</ele>
        <time>2021-03-24T16:57:18Z</time>
      </trkpt>
      <trkpt lat="49.27836" lon="-0.25012">
        <ele>3</ele>
        <time>2021-03-24T16:57:19Z</time>
      </trkpt>
      <trkpt lat="49.27834" lon="-0.25034">
        <ele>3</ele>
        <time>2021-03-24T16:57:22Z</time>
      </trkpt>
      <trkpt lat="49.27825" lon="-0.25036">
        <ele>4</ele>
        <time>2021-03-24T16:57:23Z</time>
      </trkpt>
      <trkpt lat="49.27788" lon="-0.25045">
        <ele>5</ele>
        <time>2021-03-24T16:57:30Z</time>
      </trkpt>
      <trkpt lat="49.27744" lon="-0.25056">
        <ele>6</ele>
        <time>2021-03-24T16:57:38Z</time>
      </trkpt>
      <trkpt lat="49.27584" lon="-0.25098">
        <ele>6</ele>
        <time>2021-03-24T16:58:07Z</time>
      </trkpt>
      <trkpt lat="49.27549" lon="-0.25109">
        <ele>5</ele>
        <time>2021-03-24T16:58:13Z</time>
      </trkpt>
      <trkpt lat="49.27465" lon="-0.25134">
        <ele>5</ele>
        <time>2021-03-24T16:58:28Z</time>
      </trkpt>
      <trkpt lat="49.2746" lon="-0.25135">
        <ele>5</ele>
        <time>2021-03-24T16:58:29Z</time>
      </trkpt>
      <trkpt lat="49.27422" lon="-0.25146">
        <ele>5</ele>
        <time>2021-03-24T16:58:36Z</time>
      </trkpt>
      <trkpt lat="49.27417" lon="-0.2515">
        <ele>5</ele>
        <time>2021-03-24T16:58:37Z</time>
      </trkpt>
      <trkpt lat="49.27334" lon="-0.25174">
        <ele>5</ele>
        <time>2021-03-24T16:58:52Z</time>
      </trkpt>
      <trkpt lat="49.2733" lon="-0.2518">
        <ele>5</ele>
        <time>2021-03-24T16:58:53Z</time>
      </trkpt>
      <trkpt lat="49.27322" lon="-0.25181">
        <ele>5</ele>
        <time>2021-03-24T16:58:54Z</time>
      </trkpt>
      <trkpt lat="49.2732" lon="-0.2518">
        <ele>5</ele>
        <time>2021-03-24T16:58:55Z</time>
      </trkpt>
      <trkpt lat="49.27274" lon="-0.2519">
        <ele>5</ele>
        <time>2021-03-24T16:59:03Z</time>
      </trkpt>
      <trkpt lat="49.27266" lon="-0.25195">
        <ele>4</ele>
        <time>2021-03-24T16:59:05Z</time>
      </trkpt>
      <trkpt lat="49.27258" lon="-0.25203">
        <ele>4</ele>
        <time>2021-03-24T16:59:06Z</time>
      </trkpt>
      <trkpt lat="49.27253" lon="-0.25191">
        <ele>4</ele>
        <time>2021-03-24T16:59:08Z</time>
      </trkpt>
      <trkpt lat="49.27247" lon="-0.25198">
        <ele>4</ele>
        <time>2021-03-24T16:59:09Z</time>
      </trkpt>
      <trkpt lat="49.27236" lon="-0.25206">
        <ele>4</ele>
        <time>2021-03-24T16:59:12Z</time>
      </trkpt>
      <trkpt lat="49.27231" lon="-0.2521">
        <ele>4</ele>
        <time>2021-03-24T16:59:13Z</time>
      </trkpt>
      <trkpt lat="49.2722" lon="-0.2521">
        <ele>3</ele>
        <time>2021-03-24T16:59:14Z</time>
      </trkpt>
      <trkpt lat="49.27176" lon="-0.25221">
        <ele>2</ele>
        <time>2021-03-24T16:59:22Z</time>
      </trkpt>
      <trkpt lat="49.27158" lon="-0.25217">
        <ele>2</ele>
        <time>2021-03-24T16:59:26Z</time>
      </trkpt>
      <trkpt lat="49.271" lon="-0.25233">
        <ele>2</ele>
        <time>2021-03-24T16:59:36Z</time>
      </trkpt>
      <trkpt lat="49.27091" lon="-0.25231">
        <ele>2</ele>
        <time>2021-03-24T16:59:38Z</time>
      </trkpt>
      <trkpt lat="49.27077" lon="-0.25221">
        <ele>2</ele>
        <time>2021-03-24T16:59:41Z</time>
      </trkpt>
      <trkpt lat="49.27061" lon="-0.25219">
        <ele>2</ele>
        <time>2021-03-24T16:59:43Z</time>
      </trkpt>
      <trkpt lat="49.27053" lon="-0.2522">
        <ele>3</ele>
        <time>2021-03-24T16:59:45Z</time>
      </trkpt>
      <trkpt lat="49.26816" lon="-0.25287">
        <ele>4</ele>
        <time>2021-03-24T17:00:28Z</time>
      </trkpt>
      <trkpt lat="49.26572" lon="-0.25352">
        <ele>5</ele>
        <time>2021-03-24T17:01:12Z</time>
      </trkpt>
      <trkpt lat="49.26424" lon="-0.25395">
        <ele>4</ele>
        <time>2021-03-24T17:01:39Z</time>
      </trkpt>
      <trkpt lat="49.2642" lon="-0.25397">
        <ele>4</ele>
        <time>2021-03-24T17:01:39Z</time>
      </trkpt>
      <trkpt lat="49.26299" lon="-0.25458">
        <ele>3</ele>
        <time>2021-03-24T17:02:02Z</time>
      </trkpt>
      <trkpt lat="49.26215" lon="-0.25509">
        <ele>4</ele>
        <time>2021-03-24T17:02:18Z</time>
      </trkpt>
      <trkpt lat="49.26097" lon="-0.25593">
        <ele>6</ele>
        <time>2021-03-24T17:02:41Z</time>
      </trkpt>
      <trkpt lat="49.26085" lon="-0.25603">
        <ele>6</ele>
        <time>2021-03-24T17:02:44Z</time>
      </trkpt>
      <trkpt lat="49.26067" lon="-0.25618">
        <ele>6</ele>
        <time>2021-03-24T17:02:47Z</time>
      </trkpt>
      <trkpt lat="49.26039" lon="-0.25643">
        <ele>5</ele>
        <time>2021-03-24T17:02:53Z</time>
      </trkpt>
      <trkpt lat="49.26026" lon="-0.25654">
        <ele>4</ele>
        <time>2021-03-24T17:02:56Z</time>
      </trkpt>
      <trkpt lat="49.25984" lon="-0.25692">
        <ele>3</ele>
        <time>2021-03-24T17:03:04Z</time>
      </trkpt>
      <trkpt lat="49.25878" lon="-0.25798">
        <ele>4</ele>
        <time>2021-03-24T17:03:27Z</time>
      </trkpt>
      <trkpt lat="49.25827" lon="-0.25861">
        <ele>6</ele>
        <time>2021-03-24T17:03:39Z</time>
      </trkpt>
      <trkpt lat="49.25784" lon="-0.25947">
        <ele>6</ele>
        <time>2021-03-24T17:03:51Z</time>
      </trkpt>
      <trkpt lat="49.25762" lon="-0.25998">
        <ele>7</ele>
        <time>2021-03-24T17:03:58Z</time>
      </trkpt>
      <trkpt lat="49.25739" lon="-0.26058">
        <ele>9</ele>
        <time>2021-03-24T17:04:06Z</time>
      </trkpt>
      <trkpt lat="49.25663" lon="-0.26274">
        <ele>11</ele>
        <time>2021-03-24T17:04:35Z</time>
      </trkpt>
      <trkpt lat="49.25645" lon="-0.26317">
        <ele>10</ele>
        <time>2021-03-24T17:04:41Z</time>
      </trkpt>
      <trkpt lat="49.25622" lon="-0.26366">
        <ele>9</ele>
        <time>2021-03-24T17:04:48Z</time>
      </trkpt>
      <trkpt lat="49.25599" lon="-0.26409">
        <ele>10</ele>
        <time>2021-03-24T17:04:54Z</time>
      </trkpt>
      <trkpt lat="49.2555" lon="-0.26488">
        <ele>9</ele>
        <time>2021-03-24T17:05:07Z</time>
      </trkpt>
      <trkpt lat="49.25499" lon="-0.26555">
        <ele>8</ele>
        <time>2021-03-24T17:05:19Z</time>
      </trkpt>
      <trkpt lat="49.25476" lon="-0.26582">
        <ele>8</ele>
        <time>2021-03-24T17:05:24Z</time>
      </trkpt>
      <trkpt lat="49.25455" lon="-0.26606">
        <ele>7</ele>
        <time>2021-03-24T17:05:29Z</time>
      </trkpt>
      <trkpt lat="49.25412" lon="-0.26649">
        <ele>5</ele>
        <time>2021-03-24T17:05:38Z</time>
      </trkpt>
      <trkpt lat="49.25386" lon="-0.26675">
        <ele>3</ele>
        <time>2021-03-24T17:05:43Z</time>
      </trkpt>
      <trkpt lat="49.25324" lon="-0.26717">
        <ele>2</ele>
        <time>2021-03-24T17:05:55Z</time>
      </trkpt>
      <trkpt lat="49.25236" lon="-0.26785">
        <ele>7</ele>
        <time>2021-03-24T17:06:13Z</time>
      </trkpt>
      <trkpt lat="49.24963" lon="-0.26994">
        <ele>3</ele>
        <time>2021-03-24T17:07:07Z</time>
      </trkpt>
      <trkpt lat="49.24883" lon="-0.27055">
        <ele>2</ele>
        <time>2021-03-24T17:07:23Z</time>
      </trkpt>
      <trkpt lat="49.24844" lon="-0.27085">
        <ele>3</ele>
        <time>2021-03-24T17:07:31Z</time>
      </trkpt>
      <trkpt lat="49.24706" lon="-0.2719">
        <ele>1</ele>
        <time>2021-03-24T17:07:58Z</time>
      </trkpt>
      <trkpt lat="49.24642" lon="-0.27226">
        <ele>3</ele>
        <time>2021-03-24T17:08:10Z</time>
      </trkpt>
      <trkpt lat="49.24622" lon="-0.27238">
        <ele>3</ele>
        <time>2021-03-24T17:08:14Z</time>
      </trkpt>
      <trkpt lat="49.24568" lon="-0.27284">
        <ele>3</ele>
        <time>2021-03-24T17:08:25Z</time>
      </trkpt>
      <trkpt lat="49.24378" lon="-0.2742">
        <ele>2</ele>
        <time>2021-03-24T17:09:03Z</time>
      </trkpt>
      <trkpt lat="49.2434" lon="-0.27444">
        <ele>3</ele>
        <time>2021-03-24T17:09:10Z</time>
      </trkpt>
      <trkpt lat="49.24295" lon="-0.27454">
        <ele>4</ele>
        <time>2021-03-24T17:09:18Z</time>
      </trkpt>
      <trkpt lat="49.2428" lon="-0.27462">
        <ele>4</ele>
        <time>2021-03-24T17:09:21Z</time>
      </trkpt>
      <trkpt lat="49.2427" lon="-0.27472">
        <ele>4</ele>
        <time>2021-03-24T17:09:23Z</time>
      </trkpt>
      <trkpt lat="49.2426" lon="-0.27478">
        <ele>5</ele>
        <time>2021-03-24T17:09:25Z</time>
      </trkpt>
      <trkpt lat="49.24256" lon="-0.27479">
        <ele>5</ele>
        <time>2021-03-24T17:09:25Z</time>
      </trkpt>
      <trkpt lat="49.24251" lon="-0.27482">
        <ele>5</ele>
        <time>2021-03-24T17:09:26Z</time>
      </trkpt>
      <trkpt lat="49.24248" lon="-0.27484">
        <ele>5</ele>
        <time>2021-03-24T17:09:27Z</time>
      </trkpt>
      <trkpt lat="49.24218" lon="-0.27505">
        <ele>5</ele>
        <time>2021-03-24T17:09:33Z</time>
      </trkpt>
      <trkpt lat="49.24203" lon="-0.27517">
        <ele>5</ele>
        <time>2021-03-24T17:09:36Z</time>
      </trkpt>
      <trkpt lat="49.24166" lon="-0.27569">
        <ele>6</ele>
        <time>2021-03-24T17:09:45Z</time>
      </trkpt>
      <trkpt lat="49.24153" lon="-0.27583">
        <ele>6</ele>
        <time>2021-03-24T17:09:48Z</time>
      </trkpt>
      <trkpt lat="49.24069" lon="-0.27649">
        <ele>7</ele>
        <time>2021-03-24T17:10:04Z</time>
      </trkpt>
      <trkpt lat="49.23918" lon="-0.27761">
        <ele>4</ele>
        <time>2021-03-24T17:10:34Z</time>
      </trkpt>
      <trkpt lat="49.23753" lon="-0.27887">
        <ele>9</ele>
        <time>2021-03-24T17:11:07Z</time>
      </trkpt>
      <trkpt lat="49.23649" lon="-0.27977">
        <ele>5</ele>
        <time>2021-03-24T17:11:28Z</time>
      </trkpt>
      <trkpt lat="49.2351" lon="-0.28125">
        <ele>9</ele>
        <time>2021-03-24T17:11:58Z</time>
      </trkpt>
      <trkpt lat="49.23435" lon="-0.28222">
        <ele>12</ele>
        <time>2021-03-24T17:12:16Z</time>
      </trkpt>
      <trkpt lat="49.23412" lon="-0.28258">
        <ele>12</ele>
        <time>2021-03-24T17:12:22Z</time>
      </trkpt>
      <trkpt lat="49.2336" lon="-0.28338">
        <ele>10</ele>
        <time>2021-03-24T17:12:35Z</time>
      </trkpt>
      <trkpt lat="49.23224" lon="-0.28571">
        <ele>5</ele>
        <time>2021-03-24T17:13:11Z</time>
      </trkpt>
      <trkpt lat="49.2296" lon="-0.29094">
        <ele>7</ele>
        <time>2021-03-24T17:14:28Z</time>
      </trkpt>
      <trkpt lat="49.2271" lon="-0.29583">
        <ele>3</ele>
        <time>2021-03-24T17:15:40Z</time>
      </trkpt>
      <trkpt lat="49.22482" lon="-0.30024">
        <ele>4</ele>
        <time>2021-03-24T17:16:46Z</time>
      </trkpt>
      <trkpt lat="49.22465" lon="-0.30058">
        <ele>3</ele>
        <time>2021-03-24T17:16:51Z</time>
      </trkpt>
      <trkpt lat="49.22452" lon="-0.30093">
        <ele>4</ele>
        <time>2021-03-24T17:16:55Z</time>
      </trkpt>
      <trkpt lat="49.22439" lon="-0.30116">
        <ele>4</ele>
        <time>2021-03-24T17:16:59Z</time>
      </trkpt>
      <trkpt lat="49.2243" lon="-0.30125">
        <ele>3</ele>
        <time>2021-03-24T17:17:01Z</time>
      </trkpt>
      <trkpt lat="49.2241" lon="-0.30165">
        <ele>3</ele>
        <time>2021-03-24T17:17:07Z</time>
      </trkpt>
      <trkpt lat="49.22401" lon="-0.30182">
        <ele>3</ele>
        <time>2021-03-24T17:17:09Z</time>
      </trkpt>
      <trkpt lat="49.22336" lon="-0.30307">
        <ele>3</ele>
        <time>2021-03-24T17:17:28Z</time>
      </trkpt>
      <trkpt lat="49.22275" lon="-0.30431">
        <ele>2</ele>
        <time>2021-03-24T17:17:46Z</time>
      </trkpt>
      <trkpt lat="49.2226" lon="-0.30453">
        <ele>2</ele>
        <time>2021-03-24T17:17:49Z</time>
      </trkpt>
      <trkpt lat="49.22209" lon="-0.30528">
        <ele>2</ele>
        <time>2021-03-24T17:18:02Z</time>
      </trkpt>
      <trkpt lat="49.22142" lon="-0.30608">
        <ele>1</ele>
        <time>2021-03-24T17:18:17Z</time>
      </trkpt>
      <trkpt lat="49.22055" lon="-0.30682">
        <ele>4</ele>
        <time>2021-03-24T17:18:35Z</time>
      </trkpt>
      <trkpt lat="49.21686" lon="-0.30909">
        <ele>6</ele>
        <time>2021-03-24T17:19:46Z</time>
      </trkpt>
      <trkpt lat="49.21407" lon="-0.31072">
        <ele>6</ele>
        <time>2021-03-24T17:20:39Z</time>
      </trkpt>
      <trkpt lat="49.21336" lon="-0.31116">
        <ele>13</ele>
        <time>2021-03-24T17:20:52Z</time>
      </trkpt>
      <trkpt lat="49.21323" lon="-0.31127">
        <ele>7</ele>
        <time>2021-03-24T17:20:55Z</time>
      </trkpt>
      <trkpt lat="49.21315" lon="-0.31138">
        <ele>7</ele>
        <time>2021-03-24T17:20:57Z</time>
      </trkpt>
      <trkpt lat="49.21307" lon="-0.31145">
        <ele>7</ele>
        <time>2021-03-24T17:20:58Z</time>
      </trkpt>
      <trkpt lat="49.21301" lon="-0.31149">
        <ele>7</ele>
        <time>2021-03-24T17:21:00Z</time>
      </trkpt>
      <trkpt lat="49.21297" lon="-0.31151">
        <ele>7</ele>
        <time>2021-03-24T17:21:00Z</time>
      </trkpt>
      <trkpt lat="49.21278" lon="-0.31156">
        <ele>7</ele>
        <time>2021-03-24T17:21:04Z</time>
      </trkpt>
      <trkpt lat="49.21273" lon="-0.31156">
        <ele>7</ele>
        <time>2021-03-24T17:21:05Z</time>
      </trkpt>
      <trkpt lat="49.21267" lon="-0.31158">
        <ele>7</ele>
        <time>2021-03-24T17:21:06Z</time>
      </trkpt>
      <trkpt lat="49.20861" lon="-0.31404">
        <ele>1</ele>
        <time>2021-03-24T17:22:24Z</time>
      </trkpt>
      <trkpt lat="49.20686" lon="-0.3151">
        <ele>3</ele>
        <time>2021-03-24T17:22:57Z</time>
      </trkpt>
      <trkpt lat="49.20683" lon="-0.31516">
        <ele>3</ele>
        <time>2021-03-24T17:22:58Z</time>
      </trkpt>
      <trkpt lat="49.20682" lon="-0.31518">
        <ele>3</ele>
        <time>2021-03-24T17:22:58Z</time>
      </trkpt>
      <trkpt lat="49.20682" lon="-0.31529">
        <ele>3</ele>
        <time>2021-03-24T17:22:59Z</time>
      </trkpt>
      <trkpt lat="49.20685" lon="-0.31538">
        <ele>3</ele>
        <time>2021-03-24T17:23:01Z</time>
      </trkpt>
      <trkpt lat="49.20691" lon="-0.3156">
        <ele>3</ele>
        <time>2021-03-24T17:23:03Z</time>
      </trkpt>
      <trkpt lat="49.20685" lon="-0.31564">
        <ele>3</ele>
        <time>2021-03-24T17:23:05Z</time>
      </trkpt>
      <trkpt lat="49.20681" lon="-0.31566">
        <ele>3</ele>
        <time>2021-03-24T17:23:05Z</time>
      </trkpt>
      <trkpt lat="49.20678" lon="-0.31568">
        <ele>3</ele>
        <time>2021-03-24T17:23:06Z</time>
      </trkpt>
      <trkpt lat="49.20639" lon="-0.31591">
        <ele>3</ele>
        <time>2021-03-24T17:23:13Z</time>
      </trkpt>
      <trkpt lat="49.20634" lon="-0.31592">
        <ele>3</ele>
        <time>2021-03-24T17:23:14Z</time>
      </trkpt>
      <trkpt lat="49.20633" lon="-0.3159">
        <ele>3</ele>
        <time>2021-03-24T17:23:15Z</time>
      </trkpt>
      <trkpt lat="49.20631" lon="-0.31584">
        <ele>3</ele>
        <time>2021-03-24T17:23:15Z</time>
      </trkpt>
      <trkpt lat="49.20628" lon="-0.31574">
        <ele>4</ele>
        <time>2021-03-24T17:23:17Z</time>
      </trkpt>
      <trkpt lat="49.20625" lon="-0.31566">
        <ele>4</ele>
        <time>2021-03-24T17:23:18Z</time>
      </trkpt>
      <trkpt lat="49.20617" lon="-0.31568">
        <ele>4</ele>
        <time>2021-03-24T17:23:19Z</time>
      </trkpt>
      <trkpt lat="49.20607" lon="-0.31563">
        <ele>4</ele>
        <time>2021-03-24T17:23:21Z</time>
      </trkpt>
      <trkpt lat="49.20604" lon="-0.3156">
        <ele>4</ele>
        <time>2021-03-24T17:23:22Z</time>
      </trkpt>
      <trkpt lat="49.20327" lon="-0.31727">
        <ele>5</ele>
        <time>2021-03-24T17:24:15Z</time>
      </trkpt>
      <trkpt lat="49.20306" lon="-0.31744">
        <ele>5</ele>
        <time>2021-03-24T17:24:19Z</time>
      </trkpt>
      <trkpt lat="49.2029" lon="-0.31754">
        <ele>6</ele>
        <time>2021-03-24T17:24:22Z</time>
      </trkpt>
      <trkpt lat="49.20286" lon="-0.31756">
        <ele>6</ele>
        <time>2021-03-24T17:24:23Z</time>
      </trkpt>
      <trkpt lat="49.20262" lon="-0.31765">
        <ele>8</ele>
        <time>2021-03-24T17:24:27Z</time>
      </trkpt>
      <trkpt lat="49.20057" lon="-0.31893">
        <ele>6</ele>
        <time>2021-03-24T17:25:06Z</time>
      </trkpt>
      <trkpt lat="49.20055" lon="-0.31894">
        <ele>6</ele>
        <time>2021-03-24T17:25:07Z</time>
      </trkpt>
      <trkpt lat="49.19777" lon="-0.3206">
        <ele>5</ele>
        <time>2021-03-24T17:26:00Z</time>
      </trkpt>
      <trkpt lat="49.19749" lon="-0.32085">
        <ele>5</ele>
        <time>2021-03-24T17:26:06Z</time>
      </trkpt>
      <trkpt lat="49.19719" lon="-0.32096">
        <ele>4</ele>
        <time>2021-03-24T17:26:11Z</time>
      </trkpt>
      <trkpt lat="49.19616" lon="-0.32158">
        <ele>3</ele>
        <time>2021-03-24T17:26:31Z</time>
      </trkpt>
      <trkpt lat="49.19475" lon="-0.32244">
        <ele>5</ele>
        <time>2021-03-24T17:26:58Z</time>
      </trkpt>
      <trkpt lat="49.1944" lon="-0.32265">
        <ele>5</ele>
        <time>2021-03-24T17:27:05Z</time>
      </trkpt>
      <trkpt lat="49.19416" lon="-0.32279">
        <ele>5</ele>
        <time>2021-03-24T17:27:09Z</time>
      </trkpt>
      <trkpt lat="49.19392" lon="-0.32302">
        <ele>6</ele>
        <time>2021-03-24T17:27:14Z</time>
      </trkpt>
      <trkpt lat="49.19367" lon="-0.32309">
        <ele>6</ele>
        <time>2021-03-24T17:27:19Z</time>
      </trkpt>
      <trkpt lat="49.19205" lon="-0.32405">
        <ele>3</ele>
        <time>2021-03-24T17:27:50Z</time>
      </trkpt>
      <trkpt lat="49.19135" lon="-0.3245">
        <ele>5</ele>
        <time>2021-03-24T17:28:03Z</time>
      </trkpt>
      <trkpt lat="49.1907" lon="-0.32499">
        <ele>9</ele>
        <time>2021-03-24T17:28:16Z</time>
      </trkpt>
      <trkpt lat="49.18983" lon="-0.32572">
        <ele>9</ele>
        <time>2021-03-24T17:28:34Z</time>
      </trkpt>
      <trkpt lat="49.18925" lon="-0.32632">
        <ele>9</ele>
        <time>2021-03-24T17:28:46Z</time>
      </trkpt>
      <trkpt lat="49.18873" lon="-0.32692">
        <ele>4</ele>
        <time>2021-03-24T17:28:58Z</time>
      </trkpt>
      <trkpt lat="49.1885" lon="-0.32721">
        <ele>3</ele>
        <time>2021-03-24T17:29:03Z</time>
      </trkpt>
      <trkpt lat="49.18808" lon="-0.32778">
        <ele>2</ele>
        <time>2021-03-24T17:29:13Z</time>
      </trkpt>
      <trkpt lat="49.18778" lon="-0.32824">
        <ele>2</ele>
        <time>2021-03-24T17:29:21Z</time>
      </trkpt>
      <trkpt lat="49.18768" lon="-0.32839">
        <ele>3</ele>
        <time>2021-03-24T17:29:23Z</time>
      </trkpt>
      <trkpt lat="49.18759" lon="-0.32852">
        <ele>3</ele>
        <time>2021-03-24T17:29:25Z</time>
      </trkpt>
      <trkpt lat="49.18717" lon="-0.32924">
        <ele>7</ele>
        <time>2021-03-24T17:29:36Z</time>
      </trkpt>
      <trkpt lat="49.18689" lon="-0.32986">
        <ele>10</ele>
        <time>2021-03-24T17:29:45Z</time>
      </trkpt>
      <trkpt lat="49.18674" lon="-0.33016">
        <ele>10</ele>
        <time>2021-03-24T17:29:50Z</time>
      </trkpt>
      <trkpt lat="49.18659" lon="-0.33041">
        <ele>9</ele>
        <time>2021-03-24T17:29:54Z</time>
      </trkpt>
      <trkpt lat="49.18621" lon="-0.33122">
        <ele>6</ele>
        <time>2021-03-24T17:30:05Z</time>
      </trkpt>
      <trkpt lat="49.18578" lon="-0.33231">
        <ele>6</ele>
        <time>2021-03-24T17:30:20Z</time>
      </trkpt>
      <trkpt lat="49.18562" lon="-0.33275">
        <ele>6</ele>
        <time>2021-03-24T17:30:26Z</time>
      </trkpt>
      <trkpt lat="49.1856" lon="-0.33286">
        <ele>6</ele>
        <time>2021-03-24T17:30:27Z</time>
      </trkpt>
      <trkpt lat="49.18559" lon="-0.33298">
        <ele>7</ele>
        <time>2021-03-24T17:30:29Z</time>
      </trkpt>
      <trkpt lat="49.18543" lon="-0.33357">
        <ele>7</ele>
        <time>2021-03-24T17:30:36Z</time>
      </trkpt>
      <trkpt lat="49.1852" lon="-0.33434">
        <ele>8</ele>
        <time>2021-03-24T17:30:46Z</time>
      </trkpt>
      <trkpt lat="49.18513" lon="-0.33464">
        <ele>7</ele>
        <time>2021-03-24T17:30:50Z</time>
      </trkpt>
      <trkpt lat="49.1851" lon="-0.33467">
        <ele>7</ele>
        <time>2021-03-24T17:30:50Z</time>
      </trkpt>
      <trkpt lat="49.18505" lon="-0.33476">
        <ele>7</ele>
        <time>2021-03-24T17:30:52Z</time>
      </trkpt>
      <trkpt lat="49.18481" lon="-0.33601">
        <ele>4</ele>
        <time>2021-03-24T17:31:07Z</time>
      </trkpt>
      <trkpt lat="49.18453" lon="-0.33814">
        <ele>5</ele>
        <time>2021-03-24T17:31:32Z</time>
      </trkpt>
      <trkpt lat="49.18456" lon="-0.33824">
        <ele>5</ele>
        <time>2021-03-24T17:31:33Z</time>
      </trkpt>
      <trkpt lat="49.18455" lon="-0.33837">
        <ele>6</ele>
        <time>2021-03-24T17:31:35Z</time>
      </trkpt>
      <trkpt lat="49.18451" lon="-0.33846">
        <ele>6</ele>
        <time>2021-03-24T17:31:36Z</time>
      </trkpt>
      <trkpt lat="49.1845" lon="-0.33862">
        <ele>6</ele>
        <time>2021-03-24T17:31:38Z</time>
      </trkpt>
      <trkpt lat="49.18444" lon="-0.33996">
        <ele>5</ele>
        <time>2021-03-24T17:31:54Z</time>
      </trkpt>
      <trkpt lat="49.18443" lon="-0.34051">
        <ele>5</ele>
        <time>2021-03-24T17:32:00Z</time>
      </trkpt>
      <trkpt lat="49.18446" lon="-0.344">
        <ele>8</ele>
        <time>2021-03-24T17:32:40Z</time>
      </trkpt>
      <trkpt lat="49.18448" lon="-0.34449">
        <ele>8</ele>
        <time>2021-03-24T17:32:46Z</time>
      </trkpt>
      <trkpt lat="49.1845" lon="-0.34666">
        <ele>6</ele>
        <time>2021-03-24T17:33:11Z</time>
      </trkpt>
      <trkpt lat="49.18447" lon="-0.34948">
        <ele>7</ele>
        <time>2021-03-24T17:33:44Z</time>
      </trkpt>
      <trkpt lat="49.18442" lon="-0.34995">
        <ele>6</ele>
        <time>2021-03-24T17:33:50Z</time>
      </trkpt>
      <trkpt lat="49.18427" lon="-0.35064">
        <ele>8</ele>
        <time>2021-03-24T17:33:58Z</time>
      </trkpt>
      <trkpt lat="49.18418" lon="-0.35093">
        <ele>9</ele>
        <time>2021-03-24T17:34:02Z</time>
      </trkpt>
      <trkpt lat="49.18403" lon="-0.35131">
        <ele>8</ele>
        <time>2021-03-24T17:34:07Z</time>
      </trkpt>
      <trkpt lat="49.18394" lon="-0.35151">
        <ele>7</ele>
        <time>2021-03-24T17:34:10Z</time>
      </trkpt>
      <trkpt lat="49.18382" lon="-0.35171">
        <ele>6</ele>
        <time>2021-03-24T17:34:13Z</time>
      </trkpt>
      <trkpt lat="49.1833" lon="-0.3524">
        <ele>6</ele>
        <time>2021-03-24T17:34:25Z</time>
      </trkpt>
      <trkpt lat="49.18332" lon="-0.35244">
        <ele>6</ele>
        <time>2021-03-24T17:34:26Z</time>
      </trkpt>
      <trkpt lat="49.18308" lon="-0.35278">
        <ele>6</ele>
        <time>2021-03-24T17:34:32Z</time>
      </trkpt>
      <trkpt lat="49.183" lon="-0.35299">
        <ele>6</ele>
        <time>2021-03-24T17:34:35Z</time>
      </trkpt>
      <trkpt lat="49.18299" lon="-0.35321">
        <ele>6</ele>
        <time>2021-03-24T17:34:37Z</time>
      </trkpt>
      <trkpt lat="49.18302" lon="-0.35335">
        <ele>6</ele>
        <time>2021-03-24T17:34:39Z</time>
      </trkpt>
      <trkpt lat="49.18422" lon="-0.35575">
        <ele>7</ele>
        <time>2021-03-24T17:35:14Z</time>
      </trkpt>
      <trkpt lat="49.18425" lon="-0.35586">
        <ele>7</ele>
        <time>2021-03-24T17:35:15Z</time>
      </trkpt>
      <trkpt lat="49.18431" lon="-0.35629">
        <ele>8</ele>
        <time>2021-03-24T17:35:21Z</time>
      </trkpt>
      <trkpt lat="49.18426" lon="-0.35633">
        <ele>8</ele>
        <time>2021-03-24T17:35:22Z</time>
      </trkpt>
      <trkpt lat="49.18417" lon="-0.35643">
        <ele>8</ele>
        <time>2021-03-24T17:35:23Z</time>
      </trkpt>
      <trkpt lat="49.18367" lon="-0.35705">
        <ele>9</ele>
        <time>2021-03-24T17:35:35Z</time>
      </trkpt>
      <trkpt lat="49.18317" lon="-0.35604">
        <ele>8</ele>
        <time>2021-03-24T17:35:50Z</time>
      </trkpt>
      <trkpt lat="49.18313" lon="-0.35598">
        <ele>8</ele>
        <time>2021-03-24T17:35:51Z</time>
      </trkpt>
      <trkpt lat="49.18306" lon="-0.35604">
        <ele>8</ele>
        <time>2021-03-24T17:35:52Z</time>
      </trkpt>
      <trkpt lat="49.18249" lon="-0.35673">
        <ele>10</ele>
        <time>2021-03-24T17:36:05Z</time>
      </trkpt>
      <trkpt lat="49.18151" lon="-0.35888">
        <ele>9</ele>
        <time>2021-03-24T17:36:36Z</time>
      </trkpt>
      <trkpt lat="49.18225" lon="-0.35966">
        <ele>10</ele>
        <time>2021-03-24T17:36:52Z</time>
      </trkpt>
      <trkpt lat="49.18265" lon="-0.35878">
        <ele>10</ele>
        <time>2021-03-24T17:37:04Z</time>
      </trkpt>
    </trkseg>
  </trk>
</gpx>